<?xml version="1.0" encoding="UTF-8" standalone="no" ?>
<gpx xmlns="http://www.topografix.com/GPX/1/1" xmlns:xsi="http://www.w3.org/2001/XMLSchema-instance" xsi:schemaLocation="http://www.topografix.com/GPX/1/1 http://www.topografix.com/GPX/1/1/gpx.xsd" version="1.1" creator="VisuGPX - https://www.visugpx.com">
  <metadata>
    <name>vtt tour de la brasserie singletrack </name>
    <desc><![CDATA[balade au départ de la brasserie singletrack.]]></desc>
  </metadata>
  <trk>
    <name><![CDATA[ACTIVE LOG141059]]></name>
    <trkseg>
      <trkpt lat="45.83277" lon="4.84913">
        <ele>168.334</ele>
        <time>2011-10-22T12:10:59Z</time>
      </trkpt>
      <trkpt lat="45.83274" lon="4.84911">
        <ele>167.884</ele>
        <time>2011-10-22T12:19:56Z</time>
      </trkpt>
    </trkseg>
  </trk>
  <trk>
    <name><![CDATA[ACTIVE LOG142010]]></name>
    <trkseg>
      <trkpt lat="45.83274" lon="4.84914">
        <ele>168.722</ele>
        <time>2011-10-22T12:20:09Z</time>
      </trkpt>
      <trkpt lat="45.83272" lon="4.84913">
        <ele>169.474</ele>
        <time>2011-10-22T12:21:07Z</time>
      </trkpt>
      <trkpt lat="45.83272" lon="4.84912">
        <ele>169.489</ele>
        <time>2011-10-22T12:21:39Z</time>
      </trkpt>
      <trkpt lat="45.83265" lon="4.84894">
        <ele>170.332</ele>
        <time>2011-10-22T12:21:47Z</time>
      </trkpt>
      <trkpt lat="45.83262" lon="4.84875">
        <ele>169.561</ele>
        <time>2011-10-22T12:21:55Z</time>
      </trkpt>
      <trkpt lat="45.83266" lon="4.84856">
        <ele>169.312</ele>
        <time>2011-10-22T12:22:04Z</time>
      </trkpt>
      <trkpt lat="45.83263" lon="4.84853">
        <ele>166.66</ele>
        <time>2011-10-22T12:22:08Z</time>
      </trkpt>
      <trkpt lat="45.83253" lon="4.84873">
        <ele>165.005</ele>
        <time>2011-10-22T12:22:17Z</time>
      </trkpt>
      <trkpt lat="45.83251" lon="4.84873">
        <ele>163.826</ele>
        <time>2011-10-22T12:22:19Z</time>
      </trkpt>
      <trkpt lat="45.83237" lon="4.84857">
        <ele>162.106</ele>
        <time>2011-10-22T12:22:27Z</time>
      </trkpt>
      <trkpt lat="45.83205" lon="4.84827">
        <ele>164.027</ele>
        <time>2011-10-22T12:22:38Z</time>
      </trkpt>
      <trkpt lat="45.8315" lon="4.84782">
        <ele>165.936</ele>
        <time>2011-10-22T12:22:54Z</time>
      </trkpt>
      <trkpt lat="45.83109" lon="4.84742">
        <ele>164.433</ele>
        <time>2011-10-22T12:23:06Z</time>
      </trkpt>
      <trkpt lat="45.83108" lon="4.84741">
        <ele>164.121</ele>
        <time>2011-10-22T12:23:07Z</time>
      </trkpt>
      <trkpt lat="45.83109" lon="4.84713">
        <ele>165.579</ele>
        <time>2011-10-22T12:23:18Z</time>
      </trkpt>
      <trkpt lat="45.83109" lon="4.84713">
        <ele>165.977</ele>
        <time>2011-10-22T12:23:38Z</time>
      </trkpt>
      <trkpt lat="45.83091" lon="4.84723">
        <ele>164.191</ele>
        <time>2011-10-22T12:23:45Z</time>
      </trkpt>
      <trkpt lat="45.8308" lon="4.84712">
        <ele>161.892</ele>
        <time>2011-10-22T12:23:56Z</time>
      </trkpt>
      <trkpt lat="45.83054" lon="4.84688">
        <ele>163.041</ele>
        <time>2011-10-22T12:24:03Z</time>
      </trkpt>
      <trkpt lat="45.83023" lon="4.84657">
        <ele>171.424</ele>
        <time>2011-10-22T12:24:14Z</time>
      </trkpt>
      <trkpt lat="45.83001" lon="4.84632">
        <ele>177.816</ele>
        <time>2011-10-22T12:24:24Z</time>
      </trkpt>
      <trkpt lat="45.82986" lon="4.84616">
        <ele>179.593</ele>
        <time>2011-10-22T12:24:31Z</time>
      </trkpt>
      <trkpt lat="45.82983" lon="4.84613">
        <ele>176.82</ele>
        <time>2011-10-22T12:24:40Z</time>
      </trkpt>
      <trkpt lat="45.82983" lon="4.84613">
        <ele>177.349</ele>
        <time>2011-10-22T12:24:45Z</time>
      </trkpt>
      <trkpt lat="45.82976" lon="4.84607">
        <ele>177.926</ele>
        <time>2011-10-22T12:24:55Z</time>
      </trkpt>
      <trkpt lat="45.82973" lon="4.84604">
        <ele>175.163</ele>
        <time>2011-10-22T12:25:03Z</time>
      </trkpt>
      <trkpt lat="45.82958" lon="4.84593">
        <ele>174.455</ele>
        <time>2011-10-22T12:27:24Z</time>
      </trkpt>
      <trkpt lat="45.82947" lon="4.84587">
        <ele>170.878</ele>
        <time>2011-10-22T12:27:33Z</time>
      </trkpt>
      <trkpt lat="45.82933" lon="4.84584">
        <ele>169.304</ele>
        <time>2011-10-22T12:27:48Z</time>
      </trkpt>
      <trkpt lat="45.82908" lon="4.8458">
        <ele>170.301</ele>
        <time>2011-10-22T12:28:00Z</time>
      </trkpt>
      <trkpt lat="45.82892" lon="4.84579">
        <ele>173.233</ele>
        <time>2011-10-22T12:28:06Z</time>
      </trkpt>
      <trkpt lat="45.82887" lon="4.84579">
        <ele>173.399</ele>
        <time>2011-10-22T12:28:11Z</time>
      </trkpt>
      <trkpt lat="45.829" lon="4.84579">
        <ele>175.36</ele>
        <time>2011-10-22T12:28:16Z</time>
      </trkpt>
      <trkpt lat="45.82928" lon="4.84583">
        <ele>181.38</ele>
        <time>2011-10-22T12:28:27Z</time>
      </trkpt>
      <trkpt lat="45.82956" lon="4.84554">
        <ele>178.064</ele>
        <time>2011-10-22T12:28:35Z</time>
      </trkpt>
      <trkpt lat="45.82978" lon="4.84534">
        <ele>175.148</ele>
        <time>2011-10-22T12:28:45Z</time>
      </trkpt>
      <trkpt lat="45.83003" lon="4.84499">
        <ele>174.885</ele>
        <time>2011-10-22T12:28:58Z</time>
      </trkpt>
      <trkpt lat="45.8302" lon="4.84474">
        <ele>175.508</ele>
        <time>2011-10-22T12:29:09Z</time>
      </trkpt>
      <trkpt lat="45.83022" lon="4.8447">
        <ele>176.133</ele>
        <time>2011-10-22T12:29:11Z</time>
      </trkpt>
      <trkpt lat="45.83038" lon="4.84445">
        <ele>177.879</ele>
        <time>2011-10-22T12:29:20Z</time>
      </trkpt>
      <trkpt lat="45.83039" lon="4.84444">
        <ele>177.719</ele>
        <time>2011-10-22T12:29:21Z</time>
      </trkpt>
      <trkpt lat="45.83043" lon="4.84438">
        <ele>178.797</ele>
        <time>2011-10-22T12:29:25Z</time>
      </trkpt>
      <trkpt lat="45.83052" lon="4.84426">
        <ele>182.174</ele>
        <time>2011-10-22T12:29:33Z</time>
      </trkpt>
      <trkpt lat="45.83058" lon="4.84418">
        <ele>183.342</ele>
        <time>2011-10-22T12:29:40Z</time>
      </trkpt>
      <trkpt lat="45.83058" lon="4.84418">
        <ele>184.107</ele>
        <time>2011-10-22T12:29:42Z</time>
      </trkpt>
      <trkpt lat="45.83068" lon="4.84407">
        <ele>186.709</ele>
        <time>2011-10-22T12:29:48Z</time>
      </trkpt>
      <trkpt lat="45.83072" lon="4.84402">
        <ele>188.933</ele>
        <time>2011-10-22T12:29:52Z</time>
      </trkpt>
      <trkpt lat="45.83061" lon="4.84367">
        <ele>193.625</ele>
        <time>2011-10-22T12:30:03Z</time>
      </trkpt>
      <trkpt lat="45.83057" lon="4.84342">
        <ele>198.971</ele>
        <time>2011-10-22T12:30:15Z</time>
      </trkpt>
      <trkpt lat="45.83052" lon="4.8432">
        <ele>200.496</ele>
        <time>2011-10-22T12:30:27Z</time>
      </trkpt>
      <trkpt lat="45.83047" lon="4.843">
        <ele>203.055</ele>
        <time>2011-10-22T12:30:37Z</time>
      </trkpt>
      <trkpt lat="45.83047" lon="4.84299">
        <ele>203.353</ele>
        <time>2011-10-22T12:30:39Z</time>
      </trkpt>
      <trkpt lat="45.83044" lon="4.84286">
        <ele>206.086</ele>
        <time>2011-10-22T12:30:47Z</time>
      </trkpt>
      <trkpt lat="45.83043" lon="4.8428">
        <ele>208.759</ele>
        <time>2011-10-22T12:30:57Z</time>
      </trkpt>
      <trkpt lat="45.83043" lon="4.8428">
        <ele>209.198</ele>
        <time>2011-10-22T12:31:00Z</time>
      </trkpt>
      <trkpt lat="45.83035" lon="4.84257">
        <ele>210.759</ele>
        <time>2011-10-22T12:31:05Z</time>
      </trkpt>
      <trkpt lat="45.83025" lon="4.84234">
        <ele>213.554</ele>
        <time>2011-10-22T12:31:18Z</time>
      </trkpt>
      <trkpt lat="45.83021" lon="4.84228">
        <ele>215.527</ele>
        <time>2011-10-22T12:31:23Z</time>
      </trkpt>
      <trkpt lat="45.83017" lon="4.84223">
        <ele>216.334</ele>
        <time>2011-10-22T12:31:26Z</time>
      </trkpt>
      <trkpt lat="45.83017" lon="4.84223">
        <ele>219.496</ele>
        <time>2011-10-22T12:31:40Z</time>
      </trkpt>
      <trkpt lat="45.83008" lon="4.84209">
        <ele>220.061</ele>
        <time>2011-10-22T12:31:54Z</time>
      </trkpt>
      <trkpt lat="45.82993" lon="4.84184">
        <ele>222.247</ele>
        <time>2011-10-22T12:32:03Z</time>
      </trkpt>
      <trkpt lat="45.82985" lon="4.84172">
        <ele>225.086</ele>
        <time>2011-10-22T12:32:10Z</time>
      </trkpt>
      <trkpt lat="45.82981" lon="4.84166">
        <ele>227.668</ele>
        <time>2011-10-22T12:32:15Z</time>
      </trkpt>
      <trkpt lat="45.82978" lon="4.84161">
        <ele>228.938</ele>
        <time>2011-10-22T12:32:20Z</time>
      </trkpt>
      <trkpt lat="45.82963" lon="4.84145">
        <ele>232.634</ele>
        <time>2011-10-22T12:32:32Z</time>
      </trkpt>
      <trkpt lat="45.82949" lon="4.84144">
        <ele>229.504</ele>
        <time>2011-10-22T12:32:42Z</time>
      </trkpt>
      <trkpt lat="45.82936" lon="4.84145">
        <ele>229.223</ele>
        <time>2011-10-22T12:32:52Z</time>
      </trkpt>
      <trkpt lat="45.82936" lon="4.84145">
        <ele>229.287</ele>
        <time>2011-10-22T12:32:53Z</time>
      </trkpt>
      <trkpt lat="45.82932" lon="4.84145">
        <ele>229.576</ele>
        <time>2011-10-22T12:32:56Z</time>
      </trkpt>
      <trkpt lat="45.82922" lon="4.84143">
        <ele>230.102</ele>
        <time>2011-10-22T12:33:02Z</time>
      </trkpt>
      <trkpt lat="45.82913" lon="4.84135">
        <ele>233.038</ele>
        <time>2011-10-22T12:33:13Z</time>
      </trkpt>
      <trkpt lat="45.82909" lon="4.84111">
        <ele>239.525</ele>
        <time>2011-10-22T12:33:24Z</time>
      </trkpt>
      <trkpt lat="45.82907" lon="4.84092">
        <ele>240.144</ele>
        <time>2011-10-22T12:33:33Z</time>
      </trkpt>
      <trkpt lat="45.82907" lon="4.84084">
        <ele>241.147</ele>
        <time>2011-10-22T12:33:38Z</time>
      </trkpt>
      <trkpt lat="45.82904" lon="4.84069">
        <ele>240.834</ele>
        <time>2011-10-22T12:33:48Z</time>
      </trkpt>
      <trkpt lat="45.829" lon="4.84052">
        <ele>240.107</ele>
        <time>2011-10-22T12:33:56Z</time>
      </trkpt>
      <trkpt lat="45.82899" lon="4.84045">
        <ele>239.439</ele>
        <time>2011-10-22T12:34:02Z</time>
      </trkpt>
      <trkpt lat="45.82897" lon="4.84031">
        <ele>239.503</ele>
        <time>2011-10-22T12:34:09Z</time>
      </trkpt>
      <trkpt lat="45.82895" lon="4.84015">
        <ele>238.245</ele>
        <time>2011-10-22T12:34:21Z</time>
      </trkpt>
      <trkpt lat="45.82895" lon="4.84009">
        <ele>238.85</ele>
        <time>2011-10-22T12:34:27Z</time>
      </trkpt>
      <trkpt lat="45.82905" lon="4.83994">
        <ele>238.494</ele>
        <time>2011-10-22T12:34:33Z</time>
      </trkpt>
      <trkpt lat="45.82911" lon="4.83992">
        <ele>238.095</ele>
        <time>2011-10-22T12:34:45Z</time>
      </trkpt>
      <trkpt lat="45.82911" lon="4.83992">
        <ele>238.264</ele>
        <time>2011-10-22T12:35:05Z</time>
      </trkpt>
      <trkpt lat="45.82926" lon="4.83988">
        <ele>238.655</ele>
        <time>2011-10-22T12:35:09Z</time>
      </trkpt>
      <trkpt lat="45.82947" lon="4.83983">
        <ele>238.663</ele>
        <time>2011-10-22T12:35:21Z</time>
      </trkpt>
      <trkpt lat="45.82964" lon="4.83978">
        <ele>239.451</ele>
        <time>2011-10-22T12:35:31Z</time>
      </trkpt>
      <trkpt lat="45.82981" lon="4.83974">
        <ele>241.361</ele>
        <time>2011-10-22T12:35:43Z</time>
      </trkpt>
      <trkpt lat="45.83014" lon="4.83967">
        <ele>242.161</ele>
        <time>2011-10-22T12:35:55Z</time>
      </trkpt>
      <trkpt lat="45.83037" lon="4.83963">
        <ele>243.88</ele>
        <time>2011-10-22T12:36:06Z</time>
      </trkpt>
      <trkpt lat="45.83054" lon="4.83961">
        <ele>247.263</ele>
        <time>2011-10-22T12:36:15Z</time>
      </trkpt>
      <trkpt lat="45.83065" lon="4.8395">
        <ele>246.579</ele>
        <time>2011-10-22T12:36:19Z</time>
      </trkpt>
      <trkpt lat="45.83064" lon="4.83915">
        <ele>245.162</ele>
        <time>2011-10-22T12:36:30Z</time>
      </trkpt>
      <trkpt lat="45.83061" lon="4.83872">
        <ele>242.614</ele>
        <time>2011-10-22T12:36:43Z</time>
      </trkpt>
      <trkpt lat="45.83061" lon="4.83839">
        <ele>243.495</ele>
        <time>2011-10-22T12:36:53Z</time>
      </trkpt>
      <trkpt lat="45.83061" lon="4.83798">
        <ele>244.228</ele>
        <time>2011-10-22T12:37:05Z</time>
      </trkpt>
      <trkpt lat="45.83058" lon="4.83757">
        <ele>244.296</ele>
        <time>2011-10-22T12:37:17Z</time>
      </trkpt>
      <trkpt lat="45.83058" lon="4.83718">
        <ele>243.992</ele>
        <time>2011-10-22T12:37:28Z</time>
      </trkpt>
      <trkpt lat="45.83058" lon="4.83674">
        <ele>245.005</ele>
        <time>2011-10-22T12:37:41Z</time>
      </trkpt>
      <trkpt lat="45.83058" lon="4.83674">
        <ele>245.303</ele>
        <time>2011-10-22T12:37:52Z</time>
      </trkpt>
      <trkpt lat="45.83058" lon="4.83674">
        <ele>245.351</ele>
        <time>2011-10-22T12:38:06Z</time>
      </trkpt>
      <trkpt lat="45.83058" lon="4.83674">
        <ele>244.445</ele>
        <time>2011-10-22T12:38:33Z</time>
      </trkpt>
      <trkpt lat="45.83058" lon="4.83674">
        <ele>244.924</ele>
        <time>2011-10-22T12:40:10Z</time>
      </trkpt>
      <trkpt lat="45.83047" lon="4.83671">
        <ele>246.914</ele>
        <time>2011-10-22T12:40:16Z</time>
      </trkpt>
      <trkpt lat="45.8302" lon="4.83673">
        <ele>250.555</ele>
        <time>2011-10-22T12:40:30Z</time>
      </trkpt>
      <trkpt lat="45.83" lon="4.83663">
        <ele>253.729</ele>
        <time>2011-10-22T12:40:40Z</time>
      </trkpt>
      <trkpt lat="45.82998" lon="4.83658">
        <ele>254.647</ele>
        <time>2011-10-22T12:40:51Z</time>
      </trkpt>
      <trkpt lat="45.82999" lon="4.83659">
        <ele>254.655</ele>
        <time>2011-10-22T12:40:59Z</time>
      </trkpt>
      <trkpt lat="45.83007" lon="4.8367">
        <ele>254.771</ele>
        <time>2011-10-22T12:41:06Z</time>
      </trkpt>
      <trkpt lat="45.83024" lon="4.83672">
        <ele>254.932</ele>
        <time>2011-10-22T12:41:16Z</time>
      </trkpt>
      <trkpt lat="45.83048" lon="4.8367">
        <ele>254.49</ele>
        <time>2011-10-22T12:41:26Z</time>
      </trkpt>
      <trkpt lat="45.83055" lon="4.83672">
        <ele>254.894</ele>
        <time>2011-10-22T12:41:29Z</time>
      </trkpt>
      <trkpt lat="45.83058" lon="4.83702">
        <ele>255.21</ele>
        <time>2011-10-22T12:41:38Z</time>
      </trkpt>
      <trkpt lat="45.83058" lon="4.83748">
        <ele>251.48</ele>
        <time>2011-10-22T12:41:46Z</time>
      </trkpt>
      <trkpt lat="45.83061" lon="4.83816">
        <ele>249.578</ele>
        <time>2011-10-22T12:41:54Z</time>
      </trkpt>
      <trkpt lat="45.83061" lon="4.8389">
        <ele>247.024</ele>
        <time>2011-10-22T12:42:04Z</time>
      </trkpt>
      <trkpt lat="45.83063" lon="4.8391">
        <ele>247.987</ele>
        <time>2011-10-22T12:42:07Z</time>
      </trkpt>
      <trkpt lat="45.83065" lon="4.83935">
        <ele>248.348</ele>
        <time>2011-10-22T12:42:11Z</time>
      </trkpt>
      <trkpt lat="45.83062" lon="4.83957">
        <ele>247.486</ele>
        <time>2011-10-22T12:42:15Z</time>
      </trkpt>
      <trkpt lat="45.83074" lon="4.83964">
        <ele>247.831</ele>
        <time>2011-10-22T12:42:23Z</time>
      </trkpt>
      <trkpt lat="45.83101" lon="4.83957">
        <ele>247.08</ele>
        <time>2011-10-22T12:42:35Z</time>
      </trkpt>
      <trkpt lat="45.83113" lon="4.83935">
        <ele>247.767</ele>
        <time>2011-10-22T12:42:42Z</time>
      </trkpt>
      <trkpt lat="45.83115" lon="4.83906">
        <ele>251.649</ele>
        <time>2011-10-22T12:42:50Z</time>
      </trkpt>
      <trkpt lat="45.83116" lon="4.83868">
        <ele>257.187</ele>
        <time>2011-10-22T12:43:00Z</time>
      </trkpt>
      <trkpt lat="45.83115" lon="4.83816">
        <ele>256.757</ele>
        <time>2011-10-22T12:43:11Z</time>
      </trkpt>
      <trkpt lat="45.83127" lon="4.83768">
        <ele>253.648</ele>
        <time>2011-10-22T12:43:23Z</time>
      </trkpt>
      <trkpt lat="45.83139" lon="4.83732">
        <ele>253.505</ele>
        <time>2011-10-22T12:43:33Z</time>
      </trkpt>
      <trkpt lat="45.83153" lon="4.83691">
        <ele>249.512</ele>
        <time>2011-10-22T12:43:44Z</time>
      </trkpt>
      <trkpt lat="45.83168" lon="4.83652">
        <ele>248.119</ele>
        <time>2011-10-22T12:43:56Z</time>
      </trkpt>
      <trkpt lat="45.83182" lon="4.83612">
        <ele>250.995</ele>
        <time>2011-10-22T12:44:08Z</time>
      </trkpt>
      <trkpt lat="45.83195" lon="4.8357">
        <ele>251.388</ele>
        <time>2011-10-22T12:44:18Z</time>
      </trkpt>
      <trkpt lat="45.83185" lon="4.83545">
        <ele>249.15</ele>
        <time>2011-10-22T12:44:26Z</time>
      </trkpt>
      <trkpt lat="45.83157" lon="4.83516">
        <ele>249.336</ele>
        <time>2011-10-22T12:44:39Z</time>
      </trkpt>
      <trkpt lat="45.83133" lon="4.83488">
        <ele>248.656</ele>
        <time>2011-10-22T12:44:48Z</time>
      </trkpt>
      <trkpt lat="45.8311" lon="4.8346">
        <ele>247.438</ele>
        <time>2011-10-22T12:44:57Z</time>
      </trkpt>
      <trkpt lat="45.8308" lon="4.83426">
        <ele>247.7</ele>
        <time>2011-10-22T12:45:08Z</time>
      </trkpt>
      <trkpt lat="45.83075" lon="4.83422">
        <ele>251.368</ele>
        <time>2011-10-22T12:45:10Z</time>
      </trkpt>
      <trkpt lat="45.83073" lon="4.83418">
        <ele>252.752</ele>
        <time>2011-10-22T12:45:13Z</time>
      </trkpt>
      <trkpt lat="45.83078" lon="4.83416">
        <ele>253.437</ele>
        <time>2011-10-22T12:45:17Z</time>
      </trkpt>
      <trkpt lat="45.83085" lon="4.83414">
        <ele>254.261</ele>
        <time>2011-10-22T12:45:28Z</time>
      </trkpt>
      <trkpt lat="45.83103" lon="4.83402">
        <ele>254.353</ele>
        <time>2011-10-22T12:45:42Z</time>
      </trkpt>
      <trkpt lat="45.83119" lon="4.83388">
        <ele>255.003</ele>
        <time>2011-10-22T12:45:49Z</time>
      </trkpt>
      <trkpt lat="45.83127" lon="4.83384">
        <ele>255.817</ele>
        <time>2011-10-22T12:46:01Z</time>
      </trkpt>
      <trkpt lat="45.83127" lon="4.83385">
        <ele>255.834</ele>
        <time>2011-10-22T12:46:02Z</time>
      </trkpt>
      <trkpt lat="45.83124" lon="4.83388">
        <ele>256.827</ele>
        <time>2011-10-22T12:46:05Z</time>
      </trkpt>
      <trkpt lat="45.83126" lon="4.83395">
        <ele>256.02</ele>
        <time>2011-10-22T12:46:15Z</time>
      </trkpt>
      <trkpt lat="45.83133" lon="4.83391">
        <ele>255.914</ele>
        <time>2011-10-22T12:46:45Z</time>
      </trkpt>
      <trkpt lat="45.83154" lon="4.83392">
        <ele>255.146</ele>
        <time>2011-10-22T12:46:54Z</time>
      </trkpt>
      <trkpt lat="45.83156" lon="4.8339">
        <ele>255.017</ele>
        <time>2011-10-22T12:46:55Z</time>
      </trkpt>
      <trkpt lat="45.83187" lon="4.83359">
        <ele>253.819</ele>
        <time>2011-10-22T12:47:04Z</time>
      </trkpt>
      <trkpt lat="45.83225" lon="4.83333">
        <ele>253.331</ele>
        <time>2011-10-22T12:47:12Z</time>
      </trkpt>
      <trkpt lat="45.83256" lon="4.833">
        <ele>252.74</ele>
        <time>2011-10-22T12:47:20Z</time>
      </trkpt>
      <trkpt lat="45.83272" lon="4.83264">
        <ele>252.416</ele>
        <time>2011-10-22T12:47:29Z</time>
      </trkpt>
      <trkpt lat="45.83288" lon="4.83247">
        <ele>253.103</ele>
        <time>2011-10-22T12:47:38Z</time>
      </trkpt>
      <trkpt lat="45.83291" lon="4.83245">
        <ele>253.277</ele>
        <time>2011-10-22T12:47:40Z</time>
      </trkpt>
      <trkpt lat="45.83323" lon="4.8324">
        <ele>252.636</ele>
        <time>2011-10-22T12:47:50Z</time>
      </trkpt>
      <trkpt lat="45.83354" lon="4.83253">
        <ele>251.004</ele>
        <time>2011-10-22T12:47:58Z</time>
      </trkpt>
      <trkpt lat="45.83389" lon="4.8326">
        <ele>249.223</ele>
        <time>2011-10-22T12:48:05Z</time>
      </trkpt>
      <trkpt lat="45.83424" lon="4.8326">
        <ele>245.646</ele>
        <time>2011-10-22T12:48:12Z</time>
      </trkpt>
      <trkpt lat="45.834" lon="4.83197">
        <ele>240.268</ele>
        <time>2011-10-22T12:48:18Z</time>
      </trkpt>
      <trkpt lat="45.834" lon="4.83197">
        <ele>236.136</ele>
        <time>2011-10-22T12:48:25Z</time>
      </trkpt>
      <trkpt lat="45.834" lon="4.83197">
        <ele>232.489</ele>
        <time>2011-10-22T12:48:30Z</time>
      </trkpt>
      <trkpt lat="45.83481" lon="4.8318">
        <ele>228.123</ele>
        <time>2011-10-22T12:48:35Z</time>
      </trkpt>
      <trkpt lat="45.83484" lon="4.83177">
        <ele>221.69</ele>
        <time>2011-10-22T12:48:41Z</time>
      </trkpt>
      <trkpt lat="45.83497" lon="4.83168">
        <ele>220.394</ele>
        <time>2011-10-22T12:48:43Z</time>
      </trkpt>
      <trkpt lat="45.83529" lon="4.83143">
        <ele>215.155</ele>
        <time>2011-10-22T12:48:51Z</time>
      </trkpt>
      <trkpt lat="45.83565" lon="4.83113">
        <ele>210.777</ele>
        <time>2011-10-22T12:48:56Z</time>
      </trkpt>
      <trkpt lat="45.83566" lon="4.83094">
        <ele>206.541</ele>
        <time>2011-10-22T12:49:03Z</time>
      </trkpt>
      <trkpt lat="45.83566" lon="4.83094">
        <ele>204.694</ele>
        <time>2011-10-22T12:49:29Z</time>
      </trkpt>
      <trkpt lat="45.83584" lon="4.83091">
        <ele>201.635</ele>
        <time>2011-10-22T12:49:38Z</time>
      </trkpt>
      <trkpt lat="45.83584" lon="4.83091">
        <ele>200.974</ele>
        <time>2011-10-22T12:49:53Z</time>
      </trkpt>
      <trkpt lat="45.83603" lon="4.83069">
        <ele>195.604</ele>
        <time>2011-10-22T12:51:24Z</time>
      </trkpt>
      <trkpt lat="45.83633" lon="4.83028">
        <ele>190.712</ele>
        <time>2011-10-22T12:51:35Z</time>
      </trkpt>
      <trkpt lat="45.83644" lon="4.83012">
        <ele>189.04</ele>
        <time>2011-10-22T12:51:39Z</time>
      </trkpt>
      <trkpt lat="45.83659" lon="4.82994">
        <ele>187.135</ele>
        <time>2011-10-22T12:51:43Z</time>
      </trkpt>
      <trkpt lat="45.83673" lon="4.82981">
        <ele>186.063</ele>
        <time>2011-10-22T12:51:46Z</time>
      </trkpt>
      <trkpt lat="45.83706" lon="4.82954">
        <ele>183.895</ele>
        <time>2011-10-22T12:51:53Z</time>
      </trkpt>
      <trkpt lat="45.83737" lon="4.82936">
        <ele>178.374</ele>
        <time>2011-10-22T12:52:01Z</time>
      </trkpt>
      <trkpt lat="45.83745" lon="4.82933">
        <ele>177.961</ele>
        <time>2011-10-22T12:52:05Z</time>
      </trkpt>
      <trkpt lat="45.83756" lon="4.82931">
        <ele>175.963</ele>
        <time>2011-10-22T12:52:09Z</time>
      </trkpt>
      <trkpt lat="45.83789" lon="4.82949">
        <ele>176.709</ele>
        <time>2011-10-22T12:52:17Z</time>
      </trkpt>
      <trkpt lat="45.83793" lon="4.82944">
        <ele>177.116</ele>
        <time>2011-10-22T12:52:18Z</time>
      </trkpt>
      <trkpt lat="45.83847" lon="4.82895">
        <ele>173.77</ele>
        <time>2011-10-22T12:52:27Z</time>
      </trkpt>
      <trkpt lat="45.83908" lon="4.82858">
        <ele>172.669</ele>
        <time>2011-10-22T12:52:37Z</time>
      </trkpt>
      <trkpt lat="45.83941" lon="4.82844">
        <ele>174.351</ele>
        <time>2011-10-22T12:52:46Z</time>
      </trkpt>
      <trkpt lat="45.83948" lon="4.82839">
        <ele>174.463</ele>
        <time>2011-10-22T12:52:49Z</time>
      </trkpt>
      <trkpt lat="45.8394" lon="4.82845">
        <ele>173.711</ele>
        <time>2011-10-22T12:52:56Z</time>
      </trkpt>
      <trkpt lat="45.83933" lon="4.82848">
        <ele>173.305</ele>
        <time>2011-10-22T12:52:58Z</time>
      </trkpt>
      <trkpt lat="45.83898" lon="4.82862">
        <ele>171.636</ele>
        <time>2011-10-22T12:53:06Z</time>
      </trkpt>
      <trkpt lat="45.83856" lon="4.82889">
        <ele>168.117</ele>
        <time>2011-10-22T12:53:15Z</time>
      </trkpt>
      <trkpt lat="45.83868" lon="4.82909">
        <ele>173.593</ele>
        <time>2011-10-22T12:53:19Z</time>
      </trkpt>
      <trkpt lat="45.83872" lon="4.82921">
        <ele>173.297</ele>
        <time>2011-10-22T12:53:21Z</time>
      </trkpt>
      <trkpt lat="45.83875" lon="4.82931">
        <ele>173.34</ele>
        <time>2011-10-22T12:53:23Z</time>
      </trkpt>
      <trkpt lat="45.83885" lon="4.8296">
        <ele>171.591</ele>
        <time>2011-10-22T12:53:27Z</time>
      </trkpt>
      <trkpt lat="45.83892" lon="4.83037">
        <ele>167.03</ele>
        <time>2011-10-22T12:53:37Z</time>
      </trkpt>
      <trkpt lat="45.83895" lon="4.83084">
        <ele>168.466</ele>
        <time>2011-10-22T12:53:47Z</time>
      </trkpt>
      <trkpt lat="45.83897" lon="4.83106">
        <ele>168.375</ele>
        <time>2011-10-22T12:53:57Z</time>
      </trkpt>
      <trkpt lat="45.8391" lon="4.83106">
        <ele>166.329</ele>
        <time>2011-10-22T12:54:03Z</time>
      </trkpt>
      <trkpt lat="45.83913" lon="4.83106">
        <ele>165.573</ele>
        <time>2011-10-22T12:54:04Z</time>
      </trkpt>
      <trkpt lat="45.83941" lon="4.83102">
        <ele>163.2</ele>
        <time>2011-10-22T12:54:11Z</time>
      </trkpt>
      <trkpt lat="45.83968" lon="4.831">
        <ele>166.235</ele>
        <time>2011-10-22T12:54:19Z</time>
      </trkpt>
      <trkpt lat="45.83989" lon="4.831">
        <ele>166.546</ele>
        <time>2011-10-22T12:54:30Z</time>
      </trkpt>
      <trkpt lat="45.84014" lon="4.831">
        <ele>166.83</ele>
        <time>2011-10-22T12:54:41Z</time>
      </trkpt>
      <trkpt lat="45.84047" lon="4.83103">
        <ele>168.028</ele>
        <time>2011-10-22T12:54:51Z</time>
      </trkpt>
      <trkpt lat="45.84088" lon="4.83111">
        <ele>167.538</ele>
        <time>2011-10-22T12:55:01Z</time>
      </trkpt>
      <trkpt lat="45.84141" lon="4.83125">
        <ele>167.668</ele>
        <time>2011-10-22T12:55:13Z</time>
      </trkpt>
      <trkpt lat="45.84206" lon="4.83148">
        <ele>167.518</ele>
        <time>2011-10-22T12:55:29Z</time>
      </trkpt>
      <trkpt lat="45.84262" lon="4.83167">
        <ele>167.836</ele>
        <time>2011-10-22T12:55:43Z</time>
      </trkpt>
      <trkpt lat="45.84323" lon="4.83185">
        <ele>167.236</ele>
        <time>2011-10-22T12:55:56Z</time>
      </trkpt>
      <trkpt lat="45.84365" lon="4.83196">
        <ele>166.946</ele>
        <time>2011-10-22T12:56:05Z</time>
      </trkpt>
      <trkpt lat="45.84385" lon="4.83201">
        <ele>168.117</ele>
        <time>2011-10-22T12:56:12Z</time>
      </trkpt>
      <trkpt lat="45.84408" lon="4.83207">
        <ele>168.631</ele>
        <time>2011-10-22T12:56:20Z</time>
      </trkpt>
      <trkpt lat="45.84432" lon="4.83212">
        <ele>166.617</ele>
        <time>2011-10-22T12:56:28Z</time>
      </trkpt>
      <trkpt lat="45.84436" lon="4.83213">
        <ele>165.904</ele>
        <time>2011-10-22T12:56:31Z</time>
      </trkpt>
      <trkpt lat="45.84477" lon="4.83223">
        <ele>166.337</ele>
        <time>2011-10-22T12:56:44Z</time>
      </trkpt>
      <trkpt lat="45.84506" lon="4.8323">
        <ele>166.425</ele>
        <time>2011-10-22T12:56:54Z</time>
      </trkpt>
      <trkpt lat="45.84507" lon="4.83231">
        <ele>166.601</ele>
        <time>2011-10-22T12:57:04Z</time>
      </trkpt>
      <trkpt lat="45.84516" lon="4.83233">
        <ele>167.857</ele>
        <time>2011-10-22T12:57:24Z</time>
      </trkpt>
      <trkpt lat="45.84519" lon="4.83262">
        <ele>166.825</ele>
        <time>2011-10-22T12:57:31Z</time>
      </trkpt>
      <trkpt lat="45.84508" lon="4.83342">
        <ele>167.128</ele>
        <time>2011-10-22T12:57:42Z</time>
      </trkpt>
      <trkpt lat="45.84496" lon="4.83418">
        <ele>167.693</ele>
        <time>2011-10-22T12:57:52Z</time>
      </trkpt>
      <trkpt lat="45.84488" lon="4.83473">
        <ele>168.693</ele>
        <time>2011-10-22T12:58:01Z</time>
      </trkpt>
      <trkpt lat="45.84488" lon="4.83474">
        <ele>169.137</ele>
        <time>2011-10-22T12:58:02Z</time>
      </trkpt>
      <trkpt lat="45.84488" lon="4.83474">
        <ele>169.26</ele>
        <time>2011-10-22T12:58:16Z</time>
      </trkpt>
      <trkpt lat="45.84486" lon="4.83491">
        <ele>168.631</ele>
        <time>2011-10-22T12:58:50Z</time>
      </trkpt>
      <trkpt lat="45.84466" lon="4.8349">
        <ele>168.383</ele>
        <time>2011-10-22T12:58:55Z</time>
      </trkpt>
      <trkpt lat="45.84461" lon="4.83487">
        <ele>168.628</ele>
        <time>2011-10-22T12:58:59Z</time>
      </trkpt>
      <trkpt lat="45.84455" lon="4.83477">
        <ele>169.815</ele>
        <time>2011-10-22T12:59:06Z</time>
      </trkpt>
      <trkpt lat="45.84449" lon="4.8346">
        <ele>169.097</ele>
        <time>2011-10-22T12:59:11Z</time>
      </trkpt>
      <trkpt lat="45.84403" lon="4.83426">
        <ele>165.657</ele>
        <time>2011-10-22T12:59:21Z</time>
      </trkpt>
      <trkpt lat="45.84364" lon="4.83409">
        <ele>166.176</ele>
        <time>2011-10-22T12:59:31Z</time>
      </trkpt>
      <trkpt lat="45.84327" lon="4.83396">
        <ele>163.422</ele>
        <time>2011-10-22T12:59:41Z</time>
      </trkpt>
      <trkpt lat="45.84297" lon="4.83386">
        <ele>164.33</ele>
        <time>2011-10-22T12:59:49Z</time>
      </trkpt>
      <trkpt lat="45.84268" lon="4.83376">
        <ele>167.303</ele>
        <time>2011-10-22T12:59:58Z</time>
      </trkpt>
      <trkpt lat="45.84248" lon="4.83369">
        <ele>168.313</ele>
        <time>2011-10-22T13:00:05Z</time>
      </trkpt>
      <trkpt lat="45.84216" lon="4.83358">
        <ele>166.882</ele>
        <time>2011-10-22T13:00:13Z</time>
      </trkpt>
      <trkpt lat="45.84182" lon="4.83346">
        <ele>166.328</ele>
        <time>2011-10-22T13:00:23Z</time>
      </trkpt>
      <trkpt lat="45.84147" lon="4.83333">
        <ele>167.479</ele>
        <time>2011-10-22T13:00:33Z</time>
      </trkpt>
      <trkpt lat="45.84126" lon="4.83325">
        <ele>168.342</ele>
        <time>2011-10-22T13:00:38Z</time>
      </trkpt>
      <trkpt lat="45.84085" lon="4.83314">
        <ele>168.886</ele>
        <time>2011-10-22T13:00:49Z</time>
      </trkpt>
      <trkpt lat="45.84046" lon="4.83308">
        <ele>164.832</ele>
        <time>2011-10-22T13:00:59Z</time>
      </trkpt>
      <trkpt lat="45.84006" lon="4.83306">
        <ele>164.388</ele>
        <time>2011-10-22T13:01:09Z</time>
      </trkpt>
      <trkpt lat="45.83959" lon="4.8331">
        <ele>163.141</ele>
        <time>2011-10-22T13:01:20Z</time>
      </trkpt>
      <trkpt lat="45.83912" lon="4.83323">
        <ele>163.477</ele>
        <time>2011-10-22T13:01:33Z</time>
      </trkpt>
      <trkpt lat="45.83907" lon="4.83325">
        <ele>165.054</ele>
        <time>2011-10-22T13:01:35Z</time>
      </trkpt>
      <trkpt lat="45.8391" lon="4.83348">
        <ele>166.376</ele>
        <time>2011-10-22T13:01:42Z</time>
      </trkpt>
      <trkpt lat="45.8391" lon="4.83348">
        <ele>168.206</ele>
        <time>2011-10-22T13:01:54Z</time>
      </trkpt>
      <trkpt lat="45.8391" lon="4.83348">
        <ele>168.223</ele>
        <time>2011-10-22T13:02:07Z</time>
      </trkpt>
      <trkpt lat="45.83912" lon="4.83356">
        <ele>167.156</ele>
        <time>2011-10-22T13:02:11Z</time>
      </trkpt>
      <trkpt lat="45.83937" lon="4.83389">
        <ele>165.862</ele>
        <time>2011-10-22T13:02:22Z</time>
      </trkpt>
      <trkpt lat="45.83946" lon="4.83415">
        <ele>163.892</ele>
        <time>2011-10-22T13:02:29Z</time>
      </trkpt>
      <trkpt lat="45.83954" lon="4.83457">
        <ele>164.796</ele>
        <time>2011-10-22T13:02:38Z</time>
      </trkpt>
      <trkpt lat="45.83954" lon="4.83471">
        <ele>165.842</ele>
        <time>2011-10-22T13:02:41Z</time>
      </trkpt>
      <trkpt lat="45.83956" lon="4.83489">
        <ele>167.564</ele>
        <time>2011-10-22T13:02:47Z</time>
      </trkpt>
      <trkpt lat="45.83958" lon="4.83523">
        <ele>166.361</ele>
        <time>2011-10-22T13:02:56Z</time>
      </trkpt>
      <trkpt lat="45.8396" lon="4.83562">
        <ele>165.006</ele>
        <time>2011-10-22T13:03:05Z</time>
      </trkpt>
      <trkpt lat="45.83962" lon="4.83571">
        <ele>164.799</ele>
        <time>2011-10-22T13:03:07Z</time>
      </trkpt>
      <trkpt lat="45.83965" lon="4.83579">
        <ele>168.646</ele>
        <time>2011-10-22T13:03:11Z</time>
      </trkpt>
      <trkpt lat="45.83954" lon="4.83602">
        <ele>167.645</ele>
        <time>2011-10-22T13:03:18Z</time>
      </trkpt>
      <trkpt lat="45.8393" lon="4.8362">
        <ele>164.74</ele>
        <time>2011-10-22T13:03:29Z</time>
      </trkpt>
      <trkpt lat="45.83906" lon="4.83638">
        <ele>161.635</ele>
        <time>2011-10-22T13:03:38Z</time>
      </trkpt>
      <trkpt lat="45.83877" lon="4.83661">
        <ele>158.149</ele>
        <time>2011-10-22T13:03:49Z</time>
      </trkpt>
      <trkpt lat="45.83849" lon="4.83688">
        <ele>155.677</ele>
        <time>2011-10-22T13:03:59Z</time>
      </trkpt>
      <trkpt lat="45.83805" lon="4.83746">
        <ele>169.958</ele>
        <time>2011-10-22T13:04:12Z</time>
      </trkpt>
      <trkpt lat="45.83792" lon="4.83763">
        <ele>171.865</ele>
        <time>2011-10-22T13:04:19Z</time>
      </trkpt>
      <trkpt lat="45.8379" lon="4.83768">
        <ele>172.522</ele>
        <time>2011-10-22T13:04:26Z</time>
      </trkpt>
      <trkpt lat="45.8379" lon="4.83768">
        <ele>172.632</ele>
        <time>2011-10-22T13:04:43Z</time>
      </trkpt>
      <trkpt lat="45.83794" lon="4.83761">
        <ele>172.855</ele>
        <time>2011-10-22T13:04:47Z</time>
      </trkpt>
      <trkpt lat="45.83818" lon="4.83731">
        <ele>171.406</ele>
        <time>2011-10-22T13:04:54Z</time>
      </trkpt>
      <trkpt lat="45.83828" lon="4.83737">
        <ele>171.312</ele>
        <time>2011-10-22T13:04:58Z</time>
      </trkpt>
      <trkpt lat="45.83834" lon="4.83745">
        <ele>171.18</ele>
        <time>2011-10-22T13:05:11Z</time>
      </trkpt>
      <trkpt lat="45.8384" lon="4.83751">
        <ele>171.173</ele>
        <time>2011-10-22T13:05:33Z</time>
      </trkpt>
      <trkpt lat="45.83858" lon="4.83771">
        <ele>173.591</ele>
        <time>2011-10-22T13:05:44Z</time>
      </trkpt>
      <trkpt lat="45.83877" lon="4.83792">
        <ele>182.443</ele>
        <time>2011-10-22T13:05:56Z</time>
      </trkpt>
      <trkpt lat="45.8389" lon="4.83807">
        <ele>186.033</ele>
        <time>2011-10-22T13:06:06Z</time>
      </trkpt>
      <trkpt lat="45.83893" lon="4.8381">
        <ele>189.424</ele>
        <time>2011-10-22T13:06:15Z</time>
      </trkpt>
      <trkpt lat="45.83893" lon="4.8381">
        <ele>191.059</ele>
        <time>2011-10-22T13:06:19Z</time>
      </trkpt>
      <trkpt lat="45.83893" lon="4.8381">
        <ele>194.954</ele>
        <time>2011-10-22T13:06:33Z</time>
      </trkpt>
      <trkpt lat="45.83893" lon="4.8381">
        <ele>196.335</ele>
        <time>2011-10-22T13:06:51Z</time>
      </trkpt>
      <trkpt lat="45.83923" lon="4.83817">
        <ele>198.88</ele>
        <time>2011-10-22T13:06:58Z</time>
      </trkpt>
      <trkpt lat="45.83933" lon="4.83817">
        <ele>199.379</ele>
        <time>2011-10-22T13:07:03Z</time>
      </trkpt>
      <trkpt lat="45.83944" lon="4.83833">
        <ele>201.05</ele>
        <time>2011-10-22T13:07:13Z</time>
      </trkpt>
      <trkpt lat="45.83947" lon="4.83837">
        <ele>202.484</ele>
        <time>2011-10-22T13:07:15Z</time>
      </trkpt>
      <trkpt lat="45.83951" lon="4.83848">
        <ele>202.516</ele>
        <time>2011-10-22T13:07:20Z</time>
      </trkpt>
      <trkpt lat="45.83951" lon="4.83848">
        <ele>203.793</ele>
        <time>2011-10-22T13:07:23Z</time>
      </trkpt>
      <trkpt lat="45.83953" lon="4.83867">
        <ele>205.207</ele>
        <time>2011-10-22T13:07:31Z</time>
      </trkpt>
      <trkpt lat="45.83959" lon="4.8389">
        <ele>205.851</ele>
        <time>2011-10-22T13:07:41Z</time>
      </trkpt>
      <trkpt lat="45.83971" lon="4.8391">
        <ele>211.122</ele>
        <time>2011-10-22T13:07:53Z</time>
      </trkpt>
      <trkpt lat="45.83986" lon="4.83933">
        <ele>212.732</ele>
        <time>2011-10-22T13:08:06Z</time>
      </trkpt>
      <trkpt lat="45.83995" lon="4.8395">
        <ele>212.436</ele>
        <time>2011-10-22T13:08:19Z</time>
      </trkpt>
      <trkpt lat="45.84003" lon="4.83964">
        <ele>215.211</ele>
        <time>2011-10-22T13:08:29Z</time>
      </trkpt>
      <trkpt lat="45.84003" lon="4.83964">
        <ele>215.107</ele>
        <time>2011-10-22T13:08:32Z</time>
      </trkpt>
      <trkpt lat="45.84003" lon="4.83964">
        <ele>215.827</ele>
        <time>2011-10-22T13:08:40Z</time>
      </trkpt>
      <trkpt lat="45.84022" lon="4.83998">
        <ele>219.2</ele>
        <time>2011-10-22T13:08:55Z</time>
      </trkpt>
      <trkpt lat="45.84022" lon="4.83998">
        <ele>219.553</ele>
        <time>2011-10-22T13:08:58Z</time>
      </trkpt>
      <trkpt lat="45.84028" lon="4.84001">
        <ele>220.406</ele>
        <time>2011-10-22T13:09:01Z</time>
      </trkpt>
      <trkpt lat="45.84037" lon="4.83996">
        <ele>222.287</ele>
        <time>2011-10-22T13:09:10Z</time>
      </trkpt>
      <trkpt lat="45.84038" lon="4.83996">
        <ele>224.024</ele>
        <time>2011-10-22T13:09:48Z</time>
      </trkpt>
      <trkpt lat="45.84042" lon="4.83993">
        <ele>224.079</ele>
        <time>2011-10-22T13:10:03Z</time>
      </trkpt>
      <trkpt lat="45.84054" lon="4.83984">
        <ele>225.576</ele>
        <time>2011-10-22T13:10:13Z</time>
      </trkpt>
      <trkpt lat="45.84071" lon="4.83978">
        <ele>225.344</ele>
        <time>2011-10-22T13:10:23Z</time>
      </trkpt>
      <trkpt lat="45.84085" lon="4.83974">
        <ele>225.473</ele>
        <time>2011-10-22T13:10:33Z</time>
      </trkpt>
      <trkpt lat="45.84088" lon="4.83971">
        <ele>225.472</ele>
        <time>2011-10-22T13:10:36Z</time>
      </trkpt>
      <trkpt lat="45.84098" lon="4.83973">
        <ele>226.08</ele>
        <time>2011-10-22T13:10:46Z</time>
      </trkpt>
      <trkpt lat="45.84109" lon="4.83977">
        <ele>224.141</ele>
        <time>2011-10-22T13:12:07Z</time>
      </trkpt>
      <trkpt lat="45.84129" lon="4.83985">
        <ele>224.136</ele>
        <time>2011-10-22T13:12:20Z</time>
      </trkpt>
      <trkpt lat="45.84153" lon="4.83994">
        <ele>224.821</ele>
        <time>2011-10-22T13:12:32Z</time>
      </trkpt>
      <trkpt lat="45.84181" lon="4.84007">
        <ele>225.514</ele>
        <time>2011-10-22T13:12:43Z</time>
      </trkpt>
      <trkpt lat="45.84203" lon="4.84023">
        <ele>227.457</ele>
        <time>2011-10-22T13:12:55Z</time>
      </trkpt>
      <trkpt lat="45.84227" lon="4.84043">
        <ele>225.662</ele>
        <time>2011-10-22T13:13:07Z</time>
      </trkpt>
      <trkpt lat="45.8425" lon="4.84055">
        <ele>225.267</ele>
        <time>2011-10-22T13:13:17Z</time>
      </trkpt>
      <trkpt lat="45.84265" lon="4.84056">
        <ele>226.172</ele>
        <time>2011-10-22T13:13:26Z</time>
      </trkpt>
      <trkpt lat="45.84272" lon="4.84053">
        <ele>223.966</ele>
        <time>2011-10-22T13:14:01Z</time>
      </trkpt>
      <trkpt lat="45.84309" lon="4.84064">
        <ele>223.611</ele>
        <time>2011-10-22T13:14:14Z</time>
      </trkpt>
      <trkpt lat="45.84323" lon="4.84069">
        <ele>222.172</ele>
        <time>2011-10-22T13:14:24Z</time>
      </trkpt>
      <trkpt lat="45.84343" lon="4.8408">
        <ele>220.416</ele>
        <time>2011-10-22T13:14:36Z</time>
      </trkpt>
      <trkpt lat="45.84362" lon="4.841">
        <ele>218.883</ele>
        <time>2011-10-22T13:14:44Z</time>
      </trkpt>
      <trkpt lat="45.84369" lon="4.8412">
        <ele>217.752</ele>
        <time>2011-10-22T13:14:49Z</time>
      </trkpt>
      <trkpt lat="45.8437" lon="4.84167">
        <ele>215.484</ele>
        <time>2011-10-22T13:14:57Z</time>
      </trkpt>
      <trkpt lat="45.84369" lon="4.84207">
        <ele>210.418</ele>
        <time>2011-10-22T13:15:05Z</time>
      </trkpt>
      <trkpt lat="45.84369" lon="4.84216">
        <ele>210.921</ele>
        <time>2011-10-22T13:15:13Z</time>
      </trkpt>
      <trkpt lat="45.84365" lon="4.84256">
        <ele>210.193</ele>
        <time>2011-10-22T13:15:20Z</time>
      </trkpt>
      <trkpt lat="45.84365" lon="4.84262">
        <ele>210.058</ele>
        <time>2011-10-22T13:15:21Z</time>
      </trkpt>
      <trkpt lat="45.84364" lon="4.84299">
        <ele>208.384</ele>
        <time>2011-10-22T13:15:28Z</time>
      </trkpt>
      <trkpt lat="45.84363" lon="4.84302">
        <ele>210.334</ele>
        <time>2011-10-22T13:15:33Z</time>
      </trkpt>
      <trkpt lat="45.8436" lon="4.84337">
        <ele>210.038</ele>
        <time>2011-10-22T13:15:41Z</time>
      </trkpt>
      <trkpt lat="45.84353" lon="4.84405">
        <ele>209.841</ele>
        <time>2011-10-22T13:15:53Z</time>
      </trkpt>
      <trkpt lat="45.8435" lon="4.8443">
        <ele>210.827</ele>
        <time>2011-10-22T13:15:57Z</time>
      </trkpt>
      <trkpt lat="45.84346" lon="4.84508">
        <ele>208.812</ele>
        <time>2011-10-22T13:16:11Z</time>
      </trkpt>
      <trkpt lat="45.84353" lon="4.84544">
        <ele>210.459</ele>
        <time>2011-10-22T13:16:16Z</time>
      </trkpt>
      <trkpt lat="45.84365" lon="4.84592">
        <ele>210.531</ele>
        <time>2011-10-22T13:16:22Z</time>
      </trkpt>
      <trkpt lat="45.8438" lon="4.84649">
        <ele>210.108</ele>
        <time>2011-10-22T13:16:32Z</time>
      </trkpt>
      <trkpt lat="45.84387" lon="4.84657">
        <ele>211.539</ele>
        <time>2011-10-22T13:16:37Z</time>
      </trkpt>
      <trkpt lat="45.84396" lon="4.84658">
        <ele>213.959</ele>
        <time>2011-10-22T13:16:42Z</time>
      </trkpt>
      <trkpt lat="45.84409" lon="4.84667">
        <ele>214.854</ele>
        <time>2011-10-22T13:16:50Z</time>
      </trkpt>
      <trkpt lat="45.84423" lon="4.84643">
        <ele>215.877</ele>
        <time>2011-10-22T13:16:58Z</time>
      </trkpt>
      <trkpt lat="45.84452" lon="4.84619">
        <ele>215.039</ele>
        <time>2011-10-22T13:17:09Z</time>
      </trkpt>
      <trkpt lat="45.84465" lon="4.84608">
        <ele>216.986</ele>
        <time>2011-10-22T13:17:19Z</time>
      </trkpt>
      <trkpt lat="45.84473" lon="4.84604">
        <ele>218.026</ele>
        <time>2011-10-22T13:17:24Z</time>
      </trkpt>
      <trkpt lat="45.8449" lon="4.84597">
        <ele>220.638</ele>
        <time>2011-10-22T13:17:35Z</time>
      </trkpt>
      <trkpt lat="45.84493" lon="4.84598">
        <ele>219.927</ele>
        <time>2011-10-22T13:17:36Z</time>
      </trkpt>
      <trkpt lat="45.84507" lon="4.84618">
        <ele>219.863</ele>
        <time>2011-10-22T13:17:44Z</time>
      </trkpt>
      <trkpt lat="45.84508" lon="4.84618">
        <ele>219.98</ele>
        <time>2011-10-22T13:17:45Z</time>
      </trkpt>
      <trkpt lat="45.84517" lon="4.84634">
        <ele>221.334</ele>
        <time>2011-10-22T13:17:56Z</time>
      </trkpt>
      <trkpt lat="45.84525" lon="4.84649">
        <ele>223.071</ele>
        <time>2011-10-22T13:18:04Z</time>
      </trkpt>
      <trkpt lat="45.84535" lon="4.84664">
        <ele>223.057</ele>
        <time>2011-10-22T13:18:14Z</time>
      </trkpt>
      <trkpt lat="45.84546" lon="4.84683">
        <ele>225.934</ele>
        <time>2011-10-22T13:18:22Z</time>
      </trkpt>
      <trkpt lat="45.84556" lon="4.847">
        <ele>223.699</ele>
        <time>2011-10-22T13:18:30Z</time>
      </trkpt>
      <trkpt lat="45.84556" lon="4.84701">
        <ele>223.526</ele>
        <time>2011-10-22T13:18:35Z</time>
      </trkpt>
      <trkpt lat="45.84555" lon="4.84698">
        <ele>223.16</ele>
        <time>2011-10-22T13:18:38Z</time>
      </trkpt>
      <trkpt lat="45.84557" lon="4.84697">
        <ele>221.854</ele>
        <time>2011-10-22T13:18:44Z</time>
      </trkpt>
      <trkpt lat="45.84569" lon="4.84723">
        <ele>221.645</ele>
        <time>2011-10-22T13:18:53Z</time>
      </trkpt>
      <trkpt lat="45.84584" lon="4.84751">
        <ele>221.392</ele>
        <time>2011-10-22T13:19:04Z</time>
      </trkpt>
      <trkpt lat="45.84602" lon="4.84779">
        <ele>221.385</ele>
        <time>2011-10-22T13:19:15Z</time>
      </trkpt>
      <trkpt lat="45.84616" lon="4.848">
        <ele>220.063</ele>
        <time>2011-10-22T13:19:24Z</time>
      </trkpt>
      <trkpt lat="45.84634" lon="4.84808">
        <ele>220.673</ele>
        <time>2011-10-22T13:19:30Z</time>
      </trkpt>
      <trkpt lat="45.84669" lon="4.84803">
        <ele>222.742</ele>
        <time>2011-10-22T13:19:40Z</time>
      </trkpt>
      <trkpt lat="45.84692" lon="4.8482">
        <ele>223.163</ele>
        <time>2011-10-22T13:19:50Z</time>
      </trkpt>
      <trkpt lat="45.84706" lon="4.84833">
        <ele>223.945</ele>
        <time>2011-10-22T13:19:59Z</time>
      </trkpt>
      <trkpt lat="45.84732" lon="4.84857">
        <ele>224.003</ele>
        <time>2011-10-22T13:20:10Z</time>
      </trkpt>
      <trkpt lat="45.84756" lon="4.84876">
        <ele>224.764</ele>
        <time>2011-10-22T13:20:19Z</time>
      </trkpt>
      <trkpt lat="45.84782" lon="4.84896">
        <ele>224.775</ele>
        <time>2011-10-22T13:20:29Z</time>
      </trkpt>
      <trkpt lat="45.84812" lon="4.84923">
        <ele>226.039</ele>
        <time>2011-10-22T13:20:41Z</time>
      </trkpt>
      <trkpt lat="45.84847" lon="4.84944">
        <ele>227.201</ele>
        <time>2011-10-22T13:20:54Z</time>
      </trkpt>
      <trkpt lat="45.84883" lon="4.84956">
        <ele>227.136</ele>
        <time>2011-10-22T13:21:07Z</time>
      </trkpt>
      <trkpt lat="45.84916" lon="4.84966">
        <ele>224.211</ele>
        <time>2011-10-22T13:21:18Z</time>
      </trkpt>
      <trkpt lat="45.84933" lon="4.84967">
        <ele>223.315</ele>
        <time>2011-10-22T13:21:23Z</time>
      </trkpt>
      <trkpt lat="45.84944" lon="4.85024">
        <ele>224.796</ele>
        <time>2011-10-22T13:21:32Z</time>
      </trkpt>
      <trkpt lat="45.84947" lon="4.85024">
        <ele>224.587</ele>
        <time>2011-10-22T13:21:34Z</time>
      </trkpt>
      <trkpt lat="45.8495" lon="4.85023">
        <ele>225.012</ele>
        <time>2011-10-22T13:21:47Z</time>
      </trkpt>
      <trkpt lat="45.84959" lon="4.8501">
        <ele>223.638</ele>
        <time>2011-10-22T13:23:07Z</time>
      </trkpt>
      <trkpt lat="45.84967" lon="4.84986">
        <ele>222.749</ele>
        <time>2011-10-22T13:23:15Z</time>
      </trkpt>
      <trkpt lat="45.84973" lon="4.84977">
        <ele>222.16</ele>
        <time>2011-10-22T13:23:20Z</time>
      </trkpt>
      <trkpt lat="45.85" lon="4.84958">
        <ele>220.003</ele>
        <time>2011-10-22T13:23:32Z</time>
      </trkpt>
      <trkpt lat="45.85014" lon="4.84951">
        <ele>223.27</ele>
        <time>2011-10-22T13:23:40Z</time>
      </trkpt>
      <trkpt lat="45.85017" lon="4.8495">
        <ele>224.283</ele>
        <time>2011-10-22T13:23:43Z</time>
      </trkpt>
      <trkpt lat="45.85023" lon="4.84946">
        <ele>225.127</ele>
        <time>2011-10-22T13:23:47Z</time>
      </trkpt>
      <trkpt lat="45.85031" lon="4.84942">
        <ele>227.155</ele>
        <time>2011-10-22T13:23:57Z</time>
      </trkpt>
      <trkpt lat="45.85035" lon="4.8494">
        <ele>229.441</ele>
        <time>2011-10-22T13:24:14Z</time>
      </trkpt>
      <trkpt lat="45.85045" lon="4.84926">
        <ele>230.319</ele>
        <time>2011-10-22T13:24:46Z</time>
      </trkpt>
      <trkpt lat="45.85049" lon="4.84908">
        <ele>229.978</ele>
        <time>2011-10-22T13:24:48Z</time>
      </trkpt>
      <trkpt lat="45.85075" lon="4.84885">
        <ele>228.686</ele>
        <time>2011-10-22T13:24:54Z</time>
      </trkpt>
      <trkpt lat="45.85097" lon="4.84843">
        <ele>227.644</ele>
        <time>2011-10-22T13:24:58Z</time>
      </trkpt>
      <trkpt lat="45.85166" lon="4.84903">
        <ele>224.944</ele>
        <time>2011-10-22T13:25:06Z</time>
      </trkpt>
      <trkpt lat="45.85166" lon="4.84903">
        <ele>220.906</ele>
        <time>2011-10-22T13:25:34Z</time>
      </trkpt>
      <trkpt lat="45.85166" lon="4.84903">
        <ele>217.883</ele>
        <time>2011-10-22T13:25:41Z</time>
      </trkpt>
      <trkpt lat="45.85166" lon="4.84903">
        <ele>213.447</ele>
        <time>2011-10-22T13:25:52Z</time>
      </trkpt>
      <trkpt lat="45.85097" lon="4.84843">
        <ele>212.183</ele>
        <time>2011-10-22T13:25:58Z</time>
      </trkpt>
      <trkpt lat="45.85097" lon="4.84843">
        <ele>213.084</ele>
        <time>2011-10-22T13:26:04Z</time>
      </trkpt>
      <trkpt lat="45.85097" lon="4.84843">
        <ele>213.077</ele>
        <time>2011-10-22T13:26:13Z</time>
      </trkpt>
      <trkpt lat="45.85097" lon="4.84843">
        <ele>212.528</ele>
        <time>2011-10-22T13:26:14Z</time>
      </trkpt>
      <trkpt lat="45.85061" lon="4.84887">
        <ele>211.266</ele>
        <time>2011-10-22T13:26:29Z</time>
      </trkpt>
      <trkpt lat="45.85059" lon="4.8489">
        <ele>211.321</ele>
        <time>2011-10-22T13:26:38Z</time>
      </trkpt>
      <trkpt lat="45.85051" lon="4.84904">
        <ele>213.351</ele>
        <time>2011-10-22T13:26:49Z</time>
      </trkpt>
      <trkpt lat="45.85043" lon="4.84911">
        <ele>214.453</ele>
        <time>2011-10-22T13:27:01Z</time>
      </trkpt>
      <trkpt lat="45.85042" lon="4.84913">
        <ele>216.768</ele>
        <time>2011-10-22T13:27:12Z</time>
      </trkpt>
      <trkpt lat="45.85042" lon="4.84913">
        <ele>217.056</ele>
        <time>2011-10-22T13:27:16Z</time>
      </trkpt>
      <trkpt lat="45.85046" lon="4.84903">
        <ele>218.029</ele>
        <time>2011-10-22T13:27:21Z</time>
      </trkpt>
      <trkpt lat="45.85048" lon="4.84896">
        <ele>217.94</ele>
        <time>2011-10-22T13:27:24Z</time>
      </trkpt>
      <trkpt lat="45.85063" lon="4.84888">
        <ele>217.973</ele>
        <time>2011-10-22T13:27:29Z</time>
      </trkpt>
      <trkpt lat="45.8511" lon="4.84877">
        <ele>216.79</ele>
        <time>2011-10-22T13:27:38Z</time>
      </trkpt>
      <trkpt lat="45.85119" lon="4.8488">
        <ele>216.277</ele>
        <time>2011-10-22T13:27:46Z</time>
      </trkpt>
      <trkpt lat="45.85119" lon="4.8488">
        <ele>216.363</ele>
        <time>2011-10-22T13:28:06Z</time>
      </trkpt>
      <trkpt lat="45.85125" lon="4.84891">
        <ele>215.998</ele>
        <time>2011-10-22T13:28:13Z</time>
      </trkpt>
      <trkpt lat="45.85127" lon="4.84891">
        <ele>217.193</ele>
        <time>2011-10-22T13:28:25Z</time>
      </trkpt>
      <trkpt lat="45.8514" lon="4.84912">
        <ele>212.867</ele>
        <time>2011-10-22T13:28:33Z</time>
      </trkpt>
      <trkpt lat="45.85143" lon="4.84922">
        <ele>206.741</ele>
        <time>2011-10-22T13:28:41Z</time>
      </trkpt>
      <trkpt lat="45.85145" lon="4.84926">
        <ele>206.119</ele>
        <time>2011-10-22T13:28:43Z</time>
      </trkpt>
      <trkpt lat="45.85148" lon="4.84946">
        <ele>203.196</ele>
        <time>2011-10-22T13:28:52Z</time>
      </trkpt>
      <trkpt lat="45.85147" lon="4.84959">
        <ele>201.361</ele>
        <time>2011-10-22T13:28:57Z</time>
      </trkpt>
      <trkpt lat="45.85152" lon="4.84984">
        <ele>198.534</ele>
        <time>2011-10-22T13:29:06Z</time>
      </trkpt>
      <trkpt lat="45.85158" lon="4.84998">
        <ele>196.682</ele>
        <time>2011-10-22T13:29:13Z</time>
      </trkpt>
      <trkpt lat="45.85173" lon="4.85033">
        <ele>193.978</ele>
        <time>2011-10-22T13:29:23Z</time>
      </trkpt>
      <trkpt lat="45.85173" lon="4.85035">
        <ele>193.706</ele>
        <time>2011-10-22T13:29:24Z</time>
      </trkpt>
      <trkpt lat="45.85176" lon="4.85047">
        <ele>191.515</ele>
        <time>2011-10-22T13:29:34Z</time>
      </trkpt>
      <trkpt lat="45.8518" lon="4.85057">
        <ele>191.2</ele>
        <time>2011-10-22T13:29:44Z</time>
      </trkpt>
      <trkpt lat="45.85183" lon="4.85055">
        <ele>191.881</ele>
        <time>2011-10-22T13:29:57Z</time>
      </trkpt>
      <trkpt lat="45.85185" lon="4.85056">
        <ele>192.74</ele>
        <time>2011-10-22T13:30:03Z</time>
      </trkpt>
      <trkpt lat="45.85214" lon="4.85058">
        <ele>198.256</ele>
        <time>2011-10-22T13:30:15Z</time>
      </trkpt>
      <trkpt lat="45.85226" lon="4.85055">
        <ele>204.613</ele>
        <time>2011-10-22T13:30:26Z</time>
      </trkpt>
      <trkpt lat="45.85242" lon="4.85053">
        <ele>210.807</ele>
        <time>2011-10-22T13:30:44Z</time>
      </trkpt>
      <trkpt lat="45.8527" lon="4.85049">
        <ele>212.703</ele>
        <time>2011-10-22T13:30:51Z</time>
      </trkpt>
      <trkpt lat="45.85282" lon="4.85048">
        <ele>214.11</ele>
        <time>2011-10-22T13:30:54Z</time>
      </trkpt>
      <trkpt lat="45.85344" lon="4.85042">
        <ele>217.35</ele>
        <time>2011-10-22T13:31:01Z</time>
      </trkpt>
      <trkpt lat="45.85344" lon="4.85042">
        <ele>218.353</ele>
        <time>2011-10-22T13:31:06Z</time>
      </trkpt>
      <trkpt lat="45.85344" lon="4.85042">
        <ele>222.762</ele>
        <time>2011-10-22T13:32:13Z</time>
      </trkpt>
      <trkpt lat="45.85299" lon="4.85096">
        <ele>218.9</ele>
        <time>2011-10-22T13:32:24Z</time>
      </trkpt>
      <trkpt lat="45.85296" lon="4.85099">
        <ele>216.276</ele>
        <time>2011-10-22T13:32:32Z</time>
      </trkpt>
      <trkpt lat="45.85303" lon="4.85098">
        <ele>214.424</ele>
        <time>2011-10-22T13:32:44Z</time>
      </trkpt>
      <trkpt lat="45.8531" lon="4.85117">
        <ele>212.883</ele>
        <time>2011-10-22T13:32:54Z</time>
      </trkpt>
      <trkpt lat="45.85313" lon="4.85139">
        <ele>214.603</ele>
        <time>2011-10-22T13:33:04Z</time>
      </trkpt>
      <trkpt lat="45.85314" lon="4.85148">
        <ele>214.558</ele>
        <time>2011-10-22T13:33:08Z</time>
      </trkpt>
      <trkpt lat="45.85312" lon="4.85151">
        <ele>214.674</ele>
        <time>2011-10-22T13:33:10Z</time>
      </trkpt>
      <trkpt lat="45.85317" lon="4.85169">
        <ele>216.888</ele>
        <time>2011-10-22T13:33:17Z</time>
      </trkpt>
      <trkpt lat="45.85325" lon="4.85195">
        <ele>217.334</ele>
        <time>2011-10-22T13:33:26Z</time>
      </trkpt>
      <trkpt lat="45.85331" lon="4.85218">
        <ele>220.043</ele>
        <time>2011-10-22T13:33:35Z</time>
      </trkpt>
      <trkpt lat="45.85337" lon="4.85242">
        <ele>223.126</ele>
        <time>2011-10-22T13:33:43Z</time>
      </trkpt>
      <trkpt lat="45.85346" lon="4.85264">
        <ele>225.467</ele>
        <time>2011-10-22T13:33:51Z</time>
      </trkpt>
      <trkpt lat="45.85357" lon="4.85292">
        <ele>228.056</ele>
        <time>2011-10-22T13:33:59Z</time>
      </trkpt>
      <trkpt lat="45.85358" lon="4.85295">
        <ele>228.319</ele>
        <time>2011-10-22T13:34:00Z</time>
      </trkpt>
      <trkpt lat="45.85364" lon="4.85316">
        <ele>231.355</ele>
        <time>2011-10-22T13:34:09Z</time>
      </trkpt>
      <trkpt lat="45.85373" lon="4.85352">
        <ele>232.255</ele>
        <time>2011-10-22T13:34:19Z</time>
      </trkpt>
      <trkpt lat="45.85379" lon="4.85374">
        <ele>236.291</ele>
        <time>2011-10-22T13:34:27Z</time>
      </trkpt>
      <trkpt lat="45.85385" lon="4.85407">
        <ele>239.556</ele>
        <time>2011-10-22T13:34:39Z</time>
      </trkpt>
      <trkpt lat="45.85386" lon="4.85424">
        <ele>240.815</ele>
        <time>2011-10-22T13:34:49Z</time>
      </trkpt>
      <trkpt lat="45.85385" lon="4.85458">
        <ele>241.365</ele>
        <time>2011-10-22T13:35:02Z</time>
      </trkpt>
      <trkpt lat="45.85391" lon="4.8547">
        <ele>241.076</ele>
        <time>2011-10-22T13:35:20Z</time>
      </trkpt>
      <trkpt lat="45.85392" lon="4.85475">
        <ele>240.532</ele>
        <time>2011-10-22T13:35:56Z</time>
      </trkpt>
      <trkpt lat="45.85393" lon="4.8548">
        <ele>239.46</ele>
        <time>2011-10-22T13:36:31Z</time>
      </trkpt>
      <trkpt lat="45.8541" lon="4.85502">
        <ele>239.014</ele>
        <time>2011-10-22T13:36:42Z</time>
      </trkpt>
      <trkpt lat="45.85425" lon="4.85513">
        <ele>240.374</ele>
        <time>2011-10-22T13:36:51Z</time>
      </trkpt>
      <trkpt lat="45.85439" lon="4.85523">
        <ele>243.638</ele>
        <time>2011-10-22T13:37:01Z</time>
      </trkpt>
      <trkpt lat="45.85455" lon="4.85536">
        <ele>245.433</ele>
        <time>2011-10-22T13:37:10Z</time>
      </trkpt>
      <trkpt lat="45.85462" lon="4.85531">
        <ele>244.689</ele>
        <time>2011-10-22T13:37:19Z</time>
      </trkpt>
      <trkpt lat="45.85482" lon="4.85517">
        <ele>244.711</ele>
        <time>2011-10-22T13:37:26Z</time>
      </trkpt>
      <trkpt lat="45.85532" lon="4.85494">
        <ele>242.272</ele>
        <time>2011-10-22T13:37:33Z</time>
      </trkpt>
      <trkpt lat="45.85567" lon="4.85474">
        <ele>240.627</ele>
        <time>2011-10-22T13:37:36Z</time>
      </trkpt>
      <trkpt lat="45.85584" lon="4.85462">
        <ele>239.823</ele>
        <time>2011-10-22T13:37:38Z</time>
      </trkpt>
      <trkpt lat="45.85602" lon="4.85456">
        <ele>238.485</ele>
        <time>2011-10-22T13:37:41Z</time>
      </trkpt>
      <trkpt lat="45.85603" lon="4.85456">
        <ele>234.539</ele>
        <time>2011-10-22T13:37:51Z</time>
      </trkpt>
      <trkpt lat="45.85617" lon="4.85489">
        <ele>232.054</ele>
        <time>2011-10-22T13:38:24Z</time>
      </trkpt>
      <trkpt lat="45.85636" lon="4.85517">
        <ele>229.493</ele>
        <time>2011-10-22T13:38:34Z</time>
      </trkpt>
      <trkpt lat="45.85654" lon="4.85517">
        <ele>226.093</ele>
        <time>2011-10-22T13:38:43Z</time>
      </trkpt>
      <trkpt lat="45.85661" lon="4.85516">
        <ele>221.588</ele>
        <time>2011-10-22T13:38:49Z</time>
      </trkpt>
      <trkpt lat="45.85667" lon="4.85515">
        <ele>219.363</ele>
        <time>2011-10-22T13:38:53Z</time>
      </trkpt>
      <trkpt lat="45.85669" lon="4.85513">
        <ele>216.92</ele>
        <time>2011-10-22T13:39:02Z</time>
      </trkpt>
      <trkpt lat="45.85669" lon="4.85513">
        <ele>216.198</ele>
        <time>2011-10-22T13:39:11Z</time>
      </trkpt>
      <trkpt lat="45.857" lon="4.85507">
        <ele>215.189</ele>
        <time>2011-10-22T13:39:23Z</time>
      </trkpt>
      <trkpt lat="45.85709" lon="4.85512">
        <ele>215.889</ele>
        <time>2011-10-22T13:39:32Z</time>
      </trkpt>
      <trkpt lat="45.85709" lon="4.85512">
        <ele>215.922</ele>
        <time>2011-10-22T13:39:39Z</time>
      </trkpt>
      <trkpt lat="45.85692" lon="4.85504">
        <ele>215.824</ele>
        <time>2011-10-22T13:39:47Z</time>
      </trkpt>
      <trkpt lat="45.85668" lon="4.85514">
        <ele>215.222</ele>
        <time>2011-10-22T13:39:52Z</time>
      </trkpt>
      <trkpt lat="45.85666" lon="4.85516">
        <ele>214.704</ele>
        <time>2011-10-22T13:40:01Z</time>
      </trkpt>
      <trkpt lat="45.85666" lon="4.85516">
        <ele>214.695</ele>
        <time>2011-10-22T13:40:12Z</time>
      </trkpt>
      <trkpt lat="45.85681" lon="4.85537">
        <ele>215.065</ele>
        <time>2011-10-22T13:40:23Z</time>
      </trkpt>
      <trkpt lat="45.85684" lon="4.85544">
        <ele>214.893</ele>
        <time>2011-10-22T13:40:25Z</time>
      </trkpt>
      <trkpt lat="45.85696" lon="4.85555">
        <ele>216.571</ele>
        <time>2011-10-22T13:40:36Z</time>
      </trkpt>
      <trkpt lat="45.85722" lon="4.85518">
        <ele>217.012</ele>
        <time>2011-10-22T13:40:43Z</time>
      </trkpt>
      <trkpt lat="45.85727" lon="4.8552">
        <ele>217.345</ele>
        <time>2011-10-22T13:40:45Z</time>
      </trkpt>
      <trkpt lat="45.85728" lon="4.85521">
        <ele>218.046</ele>
        <time>2011-10-22T13:40:56Z</time>
      </trkpt>
      <trkpt lat="45.85728" lon="4.85521">
        <ele>218.157</ele>
        <time>2011-10-22T13:41:39Z</time>
      </trkpt>
      <trkpt lat="45.85738" lon="4.85628">
        <ele>218.414</ele>
        <time>2011-10-22T13:41:47Z</time>
      </trkpt>
      <trkpt lat="45.85741" lon="4.85635">
        <ele>218.615</ele>
        <time>2011-10-22T13:41:49Z</time>
      </trkpt>
      <trkpt lat="45.85745" lon="4.85671">
        <ele>219.362</ele>
        <time>2011-10-22T13:41:59Z</time>
      </trkpt>
      <trkpt lat="45.8575" lon="4.85686">
        <ele>219.588</ele>
        <time>2011-10-22T13:42:03Z</time>
      </trkpt>
      <trkpt lat="45.85764" lon="4.85729">
        <ele>219.633</ele>
        <time>2011-10-22T13:42:15Z</time>
      </trkpt>
      <trkpt lat="45.85777" lon="4.85761">
        <ele>219.627</ele>
        <time>2011-10-22T13:42:24Z</time>
      </trkpt>
      <trkpt lat="45.85797" lon="4.85802">
        <ele>218.929</ele>
        <time>2011-10-22T13:42:35Z</time>
      </trkpt>
      <trkpt lat="45.85801" lon="4.85835">
        <ele>218.481</ele>
        <time>2011-10-22T13:42:44Z</time>
      </trkpt>
      <trkpt lat="45.85811" lon="4.85877">
        <ele>219.206</ele>
        <time>2011-10-22T13:42:53Z</time>
      </trkpt>
      <trkpt lat="45.85809" lon="4.8591">
        <ele>219.024</ele>
        <time>2011-10-22T13:43:01Z</time>
      </trkpt>
      <trkpt lat="45.85803" lon="4.8593">
        <ele>218.952</ele>
        <time>2011-10-22T13:43:06Z</time>
      </trkpt>
      <trkpt lat="45.85805" lon="4.85947">
        <ele>219.958</ele>
        <time>2011-10-22T13:43:14Z</time>
      </trkpt>
      <trkpt lat="45.85823" lon="4.85968">
        <ele>220.711</ele>
        <time>2011-10-22T13:43:23Z</time>
      </trkpt>
      <trkpt lat="45.85829" lon="4.85974">
        <ele>221.841</ele>
        <time>2011-10-22T13:43:26Z</time>
      </trkpt>
      <trkpt lat="45.85831" lon="4.85998">
        <ele>222.583</ele>
        <time>2011-10-22T13:43:32Z</time>
      </trkpt>
      <trkpt lat="45.85831" lon="4.86001">
        <ele>222.624</ele>
        <time>2011-10-22T13:43:33Z</time>
      </trkpt>
      <trkpt lat="45.8584" lon="4.86028">
        <ele>224.474</ele>
        <time>2011-10-22T13:43:40Z</time>
      </trkpt>
      <trkpt lat="45.85841" lon="4.86033">
        <ele>225.446</ele>
        <time>2011-10-22T13:43:49Z</time>
      </trkpt>
      <trkpt lat="45.85842" lon="4.86033">
        <ele>225.483</ele>
        <time>2011-10-22T13:43:50Z</time>
      </trkpt>
      <trkpt lat="45.8585" lon="4.86056">
        <ele>227.009</ele>
        <time>2011-10-22T13:43:58Z</time>
      </trkpt>
      <trkpt lat="45.85851" lon="4.86098">
        <ele>229.884</ele>
        <time>2011-10-22T13:44:08Z</time>
      </trkpt>
      <trkpt lat="45.85851" lon="4.86118">
        <ele>230.776</ele>
        <time>2011-10-22T13:44:13Z</time>
      </trkpt>
      <trkpt lat="45.85854" lon="4.86134">
        <ele>233.151</ele>
        <time>2011-10-22T13:44:18Z</time>
      </trkpt>
      <trkpt lat="45.85855" lon="4.86166">
        <ele>234.802</ele>
        <time>2011-10-22T13:44:26Z</time>
      </trkpt>
      <trkpt lat="45.85847" lon="4.86195">
        <ele>235.841</ele>
        <time>2011-10-22T13:44:35Z</time>
      </trkpt>
      <trkpt lat="45.85845" lon="4.86199">
        <ele>235.552</ele>
        <time>2011-10-22T13:44:36Z</time>
      </trkpt>
      <trkpt lat="45.85838" lon="4.86205">
        <ele>235.142</ele>
        <time>2011-10-22T13:44:40Z</time>
      </trkpt>
      <trkpt lat="45.85831" lon="4.86209">
        <ele>234.91</ele>
        <time>2011-10-22T13:44:43Z</time>
      </trkpt>
      <trkpt lat="45.8583" lon="4.86241">
        <ele>232.323</ele>
        <time>2011-10-22T13:44:51Z</time>
      </trkpt>
      <trkpt lat="45.85835" lon="4.86248">
        <ele>232.312</ele>
        <time>2011-10-22T13:44:53Z</time>
      </trkpt>
      <trkpt lat="45.85841" lon="4.86257">
        <ele>232.1</ele>
        <time>2011-10-22T13:44:55Z</time>
      </trkpt>
      <trkpt lat="45.85855" lon="4.86297">
        <ele>231.37</ele>
        <time>2011-10-22T13:45:03Z</time>
      </trkpt>
      <trkpt lat="45.85858" lon="4.86309">
        <ele>231.388</ele>
        <time>2011-10-22T13:45:05Z</time>
      </trkpt>
      <trkpt lat="45.85874" lon="4.86358">
        <ele>231.126</ele>
        <time>2011-10-22T13:45:12Z</time>
      </trkpt>
      <trkpt lat="45.85886" lon="4.86378">
        <ele>231.105</ele>
        <time>2011-10-22T13:45:18Z</time>
      </trkpt>
      <trkpt lat="45.85893" lon="4.86383">
        <ele>231.566</ele>
        <time>2011-10-22T13:45:27Z</time>
      </trkpt>
      <trkpt lat="45.85902" lon="4.86384">
        <ele>231.321</ele>
        <time>2011-10-22T13:45:41Z</time>
      </trkpt>
      <trkpt lat="45.85912" lon="4.86386">
        <ele>232.052</ele>
        <time>2011-10-22T13:45:50Z</time>
      </trkpt>
      <trkpt lat="45.85917" lon="4.86392">
        <ele>231.873</ele>
        <time>2011-10-22T13:45:54Z</time>
      </trkpt>
      <trkpt lat="45.8593" lon="4.86403">
        <ele>232.102</ele>
        <time>2011-10-22T13:46:02Z</time>
      </trkpt>
      <trkpt lat="45.85941" lon="4.86424">
        <ele>232.082</ele>
        <time>2011-10-22T13:46:09Z</time>
      </trkpt>
      <trkpt lat="45.85959" lon="4.86471">
        <ele>233.301</ele>
        <time>2011-10-22T13:46:18Z</time>
      </trkpt>
      <trkpt lat="45.85962" lon="4.86472">
        <ele>233.786</ele>
        <time>2011-10-22T13:46:20Z</time>
      </trkpt>
      <trkpt lat="45.85969" lon="4.86473">
        <ele>234.895</ele>
        <time>2011-10-22T13:46:23Z</time>
      </trkpt>
      <trkpt lat="45.8598" lon="4.86484">
        <ele>237.91</ele>
        <time>2011-10-22T13:46:31Z</time>
      </trkpt>
      <trkpt lat="45.85995" lon="4.86481">
        <ele>239.763</ele>
        <time>2011-10-22T13:46:41Z</time>
      </trkpt>
      <trkpt lat="45.85998" lon="4.86479">
        <ele>239.94</ele>
        <time>2011-10-22T13:46:44Z</time>
      </trkpt>
      <trkpt lat="45.86006" lon="4.86473">
        <ele>242.108</ele>
        <time>2011-10-22T13:46:55Z</time>
      </trkpt>
      <trkpt lat="45.86007" lon="4.8647">
        <ele>243.597</ele>
        <time>2011-10-22T13:49:07Z</time>
      </trkpt>
      <trkpt lat="45.86009" lon="4.8645">
        <ele>243.684</ele>
        <time>2011-10-22T13:49:18Z</time>
      </trkpt>
      <trkpt lat="45.86016" lon="4.86459">
        <ele>242.97</ele>
        <time>2011-10-22T13:49:23Z</time>
      </trkpt>
      <trkpt lat="45.8601" lon="4.86474">
        <ele>241.33</ele>
        <time>2011-10-22T13:49:30Z</time>
      </trkpt>
      <trkpt lat="45.86007" lon="4.86477">
        <ele>240.181</ele>
        <time>2011-10-22T13:49:34Z</time>
      </trkpt>
      <trkpt lat="45.86006" lon="4.8647">
        <ele>238.778</ele>
        <time>2011-10-22T13:49:41Z</time>
      </trkpt>
      <trkpt lat="45.86006" lon="4.86471">
        <ele>238.051</ele>
        <time>2011-10-22T13:49:43Z</time>
      </trkpt>
      <trkpt lat="45.86001" lon="4.86451">
        <ele>236.95</ele>
        <time>2011-10-22T13:49:53Z</time>
      </trkpt>
      <trkpt lat="45.8601" lon="4.86437">
        <ele>237.87</ele>
        <time>2011-10-22T13:50:02Z</time>
      </trkpt>
      <trkpt lat="45.86016" lon="4.86427">
        <ele>240.088</ele>
        <time>2011-10-22T13:50:12Z</time>
      </trkpt>
      <trkpt lat="45.86012" lon="4.86433">
        <ele>242.856</ele>
        <time>2011-10-22T13:50:21Z</time>
      </trkpt>
      <trkpt lat="45.8601" lon="4.86439">
        <ele>242.689</ele>
        <time>2011-10-22T13:50:24Z</time>
      </trkpt>
      <trkpt lat="45.86022" lon="4.86449">
        <ele>238.993</ele>
        <time>2011-10-22T13:50:34Z</time>
      </trkpt>
      <trkpt lat="45.86025" lon="4.86449">
        <ele>238.494</ele>
        <time>2011-10-22T13:50:36Z</time>
      </trkpt>
      <trkpt lat="45.86031" lon="4.86444">
        <ele>237.312</ele>
        <time>2011-10-22T13:50:40Z</time>
      </trkpt>
      <trkpt lat="45.86032" lon="4.86436">
        <ele>235.875</ele>
        <time>2011-10-22T13:50:51Z</time>
      </trkpt>
      <trkpt lat="45.86046" lon="4.86418">
        <ele>236.605</ele>
        <time>2011-10-22T13:51:37Z</time>
      </trkpt>
      <trkpt lat="45.8605" lon="4.86395">
        <ele>236.784</ele>
        <time>2011-10-22T13:51:46Z</time>
      </trkpt>
      <trkpt lat="45.8607" lon="4.8638">
        <ele>237.461</ele>
        <time>2011-10-22T13:51:56Z</time>
      </trkpt>
      <trkpt lat="45.86072" lon="4.86361">
        <ele>238.031</ele>
        <time>2011-10-22T13:52:03Z</time>
      </trkpt>
      <trkpt lat="45.86078" lon="4.86351">
        <ele>238.509</ele>
        <time>2011-10-22T13:52:08Z</time>
      </trkpt>
      <trkpt lat="45.86091" lon="4.86338">
        <ele>240.29</ele>
        <time>2011-10-22T13:52:17Z</time>
      </trkpt>
      <trkpt lat="45.86095" lon="4.86328">
        <ele>240.891</ele>
        <time>2011-10-22T13:52:22Z</time>
      </trkpt>
      <trkpt lat="45.86102" lon="4.8631">
        <ele>242.376</ele>
        <time>2011-10-22T13:52:31Z</time>
      </trkpt>
      <trkpt lat="45.86103" lon="4.86303">
        <ele>242.953</ele>
        <time>2011-10-22T13:52:34Z</time>
      </trkpt>
      <trkpt lat="45.86104" lon="4.86295">
        <ele>243.189</ele>
        <time>2011-10-22T13:52:39Z</time>
      </trkpt>
      <trkpt lat="45.86106" lon="4.86281">
        <ele>244.39</ele>
        <time>2011-10-22T13:52:45Z</time>
      </trkpt>
      <trkpt lat="45.86112" lon="4.86256">
        <ele>246.443</ele>
        <time>2011-10-22T13:52:56Z</time>
      </trkpt>
      <trkpt lat="45.86109" lon="4.86236">
        <ele>247.447</ele>
        <time>2011-10-22T13:53:06Z</time>
      </trkpt>
      <trkpt lat="45.86107" lon="4.86217">
        <ele>248.319</ele>
        <time>2011-10-22T13:53:13Z</time>
      </trkpt>
      <trkpt lat="45.8611" lon="4.86205">
        <ele>249.36</ele>
        <time>2011-10-22T13:53:19Z</time>
      </trkpt>
      <trkpt lat="45.8612" lon="4.86191">
        <ele>251.298</ele>
        <time>2011-10-22T13:53:29Z</time>
      </trkpt>
      <trkpt lat="45.86121" lon="4.86189">
        <ele>251.538</ele>
        <time>2011-10-22T13:53:30Z</time>
      </trkpt>
      <trkpt lat="45.86136" lon="4.86166">
        <ele>254.832</ele>
        <time>2011-10-22T13:53:42Z</time>
      </trkpt>
      <trkpt lat="45.86147" lon="4.86151">
        <ele>256.676</ele>
        <time>2011-10-22T13:53:51Z</time>
      </trkpt>
      <trkpt lat="45.86159" lon="4.86137">
        <ele>259.521</ele>
        <time>2011-10-22T13:54:01Z</time>
      </trkpt>
      <trkpt lat="45.86163" lon="4.86134">
        <ele>260.489</ele>
        <time>2011-10-22T13:54:04Z</time>
      </trkpt>
      <trkpt lat="45.86166" lon="4.86134">
        <ele>261.185</ele>
        <time>2011-10-22T13:54:06Z</time>
      </trkpt>
      <trkpt lat="45.86168" lon="4.8614">
        <ele>264.071</ele>
        <time>2011-10-22T13:54:16Z</time>
      </trkpt>
      <trkpt lat="45.86176" lon="4.86137">
        <ele>266.308</ele>
        <time>2011-10-22T13:56:17Z</time>
      </trkpt>
      <trkpt lat="45.8619" lon="4.86133">
        <ele>266.474</ele>
        <time>2011-10-22T13:56:24Z</time>
      </trkpt>
      <trkpt lat="45.86213" lon="4.86114">
        <ele>267.67</ele>
        <time>2011-10-22T13:56:35Z</time>
      </trkpt>
      <trkpt lat="45.86229" lon="4.86112">
        <ele>269.052</ele>
        <time>2011-10-22T13:56:44Z</time>
      </trkpt>
      <trkpt lat="45.86241" lon="4.86109">
        <ele>270.701</ele>
        <time>2011-10-22T13:56:49Z</time>
      </trkpt>
      <trkpt lat="45.86279" lon="4.86125">
        <ele>273.823</ele>
        <time>2011-10-22T13:56:57Z</time>
      </trkpt>
      <trkpt lat="45.86303" lon="4.86141">
        <ele>274.934</ele>
        <time>2011-10-22T13:57:04Z</time>
      </trkpt>
      <trkpt lat="45.86303" lon="4.86141">
        <ele>276.336</ele>
        <time>2011-10-22T13:57:08Z</time>
      </trkpt>
      <trkpt lat="45.86303" lon="4.86141">
        <ele>282.788</ele>
        <time>2011-10-22T13:57:18Z</time>
      </trkpt>
      <trkpt lat="45.86303" lon="4.86141">
        <ele>287.293</ele>
        <time>2011-10-22T13:57:31Z</time>
      </trkpt>
      <trkpt lat="45.86303" lon="4.86141">
        <ele>288.749</ele>
        <time>2011-10-22T13:57:40Z</time>
      </trkpt>
      <trkpt lat="45.86289" lon="4.86102">
        <ele>287.531</ele>
        <time>2011-10-22T13:57:42Z</time>
      </trkpt>
      <trkpt lat="45.86286" lon="4.86097">
        <ele>285.706</ele>
        <time>2011-10-22T13:57:52Z</time>
      </trkpt>
      <trkpt lat="45.86281" lon="4.8608">
        <ele>284.465</ele>
        <time>2011-10-22T13:57:56Z</time>
      </trkpt>
      <trkpt lat="45.86281" lon="4.86076">
        <ele>282.596</ele>
        <time>2011-10-22T13:58:06Z</time>
      </trkpt>
      <trkpt lat="45.86277" lon="4.86058">
        <ele>281.461</ele>
        <time>2011-10-22T14:00:59Z</time>
      </trkpt>
      <trkpt lat="45.86276" lon="4.86051">
        <ele>281.524</ele>
        <time>2011-10-22T14:01:03Z</time>
      </trkpt>
      <trkpt lat="45.86275" lon="4.86046">
        <ele>280.737</ele>
        <time>2011-10-22T14:01:13Z</time>
      </trkpt>
      <trkpt lat="45.86271" lon="4.86022">
        <ele>280.658</ele>
        <time>2011-10-22T14:01:49Z</time>
      </trkpt>
      <trkpt lat="45.86274" lon="4.85986">
        <ele>280.646</ele>
        <time>2011-10-22T14:02:01Z</time>
      </trkpt>
      <trkpt lat="45.8629" lon="4.85941">
        <ele>282.733</ele>
        <time>2011-10-22T14:02:14Z</time>
      </trkpt>
      <trkpt lat="45.86315" lon="4.85893">
        <ele>280.135</ele>
        <time>2011-10-22T14:02:25Z</time>
      </trkpt>
      <trkpt lat="45.86331" lon="4.85862">
        <ele>279.55</ele>
        <time>2011-10-22T14:02:34Z</time>
      </trkpt>
      <trkpt lat="45.86342" lon="4.8584">
        <ele>279.318</ele>
        <time>2011-10-22T14:02:43Z</time>
      </trkpt>
      <trkpt lat="45.86343" lon="4.85834">
        <ele>278.84</ele>
        <time>2011-10-22T14:02:52Z</time>
      </trkpt>
      <trkpt lat="45.86343" lon="4.85834">
        <ele>278.459</ele>
        <time>2011-10-22T14:02:54Z</time>
      </trkpt>
      <trkpt lat="45.86343" lon="4.85835">
        <ele>278.758</ele>
        <time>2011-10-22T14:02:58Z</time>
      </trkpt>
      <trkpt lat="45.86359" lon="4.8582">
        <ele>278.306</ele>
        <time>2011-10-22T14:03:07Z</time>
      </trkpt>
      <trkpt lat="45.8636" lon="4.85819">
        <ele>279.056</ele>
        <time>2011-10-22T14:03:18Z</time>
      </trkpt>
      <trkpt lat="45.86373" lon="4.85803">
        <ele>279.746</ele>
        <time>2011-10-22T14:03:34Z</time>
      </trkpt>
      <trkpt lat="45.86373" lon="4.85803">
        <ele>279.744</ele>
        <time>2011-10-22T14:03:44Z</time>
      </trkpt>
      <trkpt lat="45.86387" lon="4.85764">
        <ele>280.06</ele>
        <time>2011-10-22T14:03:53Z</time>
      </trkpt>
      <trkpt lat="45.86397" lon="4.85749">
        <ele>280.48</ele>
        <time>2011-10-22T14:04:01Z</time>
      </trkpt>
      <trkpt lat="45.86412" lon="4.85731">
        <ele>281.119</ele>
        <time>2011-10-22T14:04:10Z</time>
      </trkpt>
      <trkpt lat="45.86422" lon="4.85717">
        <ele>281.203</ele>
        <time>2011-10-22T14:04:14Z</time>
      </trkpt>
      <trkpt lat="45.86427" lon="4.85707">
        <ele>280.752</ele>
        <time>2011-10-22T14:04:16Z</time>
      </trkpt>
      <trkpt lat="45.86448" lon="4.85644">
        <ele>279.21</ele>
        <time>2011-10-22T14:04:24Z</time>
      </trkpt>
      <trkpt lat="45.86455" lon="4.85616">
        <ele>278.331</ele>
        <time>2011-10-22T14:04:28Z</time>
      </trkpt>
      <trkpt lat="45.86489" lon="4.85602">
        <ele>276.387</ele>
        <time>2011-10-22T14:04:37Z</time>
      </trkpt>
      <trkpt lat="45.86481" lon="4.85603">
        <ele>275.697</ele>
        <time>2011-10-22T14:06:00Z</time>
      </trkpt>
      <trkpt lat="45.86481" lon="4.85596">
        <ele>275.504</ele>
        <time>2011-10-22T14:06:02Z</time>
      </trkpt>
      <trkpt lat="45.86471" lon="4.85567">
        <ele>274.849</ele>
        <time>2011-10-22T14:06:06Z</time>
      </trkpt>
      <trkpt lat="45.86471" lon="4.85567">
        <ele>273.316</ele>
        <time>2011-10-22T14:06:16Z</time>
      </trkpt>
      <trkpt lat="45.86471" lon="4.85567">
        <ele>271.261</ele>
        <time>2011-10-22T14:07:07Z</time>
      </trkpt>
      <trkpt lat="45.86471" lon="4.85567">
        <ele>270.834</ele>
        <time>2011-10-22T14:07:31Z</time>
      </trkpt>
      <trkpt lat="45.86471" lon="4.85567">
        <ele>271.03</ele>
        <time>2011-10-22T14:08:49Z</time>
      </trkpt>
      <trkpt lat="45.86471" lon="4.85567">
        <ele>271.96</ele>
        <time>2011-10-22T14:09:45Z</time>
      </trkpt>
      <trkpt lat="45.86471" lon="4.85567">
        <ele>274.959</ele>
        <time>2011-10-22T14:10:58Z</time>
      </trkpt>
      <trkpt lat="45.86473" lon="4.85565">
        <ele>274.458</ele>
        <time>2011-10-22T14:11:03Z</time>
      </trkpt>
      <trkpt lat="45.86488" lon="4.85541">
        <ele>273.584</ele>
        <time>2011-10-22T14:11:08Z</time>
      </trkpt>
      <trkpt lat="45.86496" lon="4.85517">
        <ele>273.13</ele>
        <time>2011-10-22T14:11:15Z</time>
      </trkpt>
      <trkpt lat="45.86496" lon="4.85517">
        <ele>272.09</ele>
        <time>2011-10-22T14:12:59Z</time>
      </trkpt>
      <trkpt lat="45.86496" lon="4.85512">
        <ele>270.622</ele>
        <time>2011-10-22T14:13:06Z</time>
      </trkpt>
      <trkpt lat="45.86496" lon="4.85512">
        <ele>270.497</ele>
        <time>2011-10-22T14:13:09Z</time>
      </trkpt>
      <trkpt lat="45.86496" lon="4.85505">
        <ele>270.253</ele>
        <time>2011-10-22T14:13:13Z</time>
      </trkpt>
      <trkpt lat="45.86498" lon="4.85479">
        <ele>268.191</ele>
        <time>2011-10-22T14:13:20Z</time>
      </trkpt>
      <trkpt lat="45.86498" lon="4.85465">
        <ele>264.959</ele>
        <time>2011-10-22T14:13:27Z</time>
      </trkpt>
      <trkpt lat="45.86498" lon="4.85465">
        <ele>263.911</ele>
        <time>2011-10-22T14:14:09Z</time>
      </trkpt>
      <trkpt lat="45.86498" lon="4.85422">
        <ele>263.421</ele>
        <time>2011-10-22T14:14:16Z</time>
      </trkpt>
      <trkpt lat="45.86506" lon="4.85362">
        <ele>261.234</ele>
        <time>2011-10-22T14:14:25Z</time>
      </trkpt>
      <trkpt lat="45.86511" lon="4.85335">
        <ele>256.739</ele>
        <time>2011-10-22T14:14:35Z</time>
      </trkpt>
      <trkpt lat="45.86511" lon="4.85335">
        <ele>255.402</ele>
        <time>2011-10-22T14:15:46Z</time>
      </trkpt>
      <trkpt lat="45.8652" lon="4.85314">
        <ele>253.825</ele>
        <time>2011-10-22T14:15:51Z</time>
      </trkpt>
      <trkpt lat="45.86535" lon="4.85289">
        <ele>249.864</ele>
        <time>2011-10-22T14:15:54Z</time>
      </trkpt>
      <trkpt lat="45.86554" lon="4.85267">
        <ele>240.577</ele>
        <time>2011-10-22T14:15:58Z</time>
      </trkpt>
      <trkpt lat="45.86554" lon="4.85267">
        <ele>234.674</ele>
        <time>2011-10-22T14:16:08Z</time>
      </trkpt>
      <trkpt lat="45.86557" lon="4.85229">
        <ele>229.015</ele>
        <time>2011-10-22T14:16:15Z</time>
      </trkpt>
      <trkpt lat="45.86558" lon="4.85216">
        <ele>226.823</ele>
        <time>2011-10-22T14:16:18Z</time>
      </trkpt>
      <trkpt lat="45.8655" lon="4.85204">
        <ele>223.29</ele>
        <time>2011-10-22T14:16:24Z</time>
      </trkpt>
      <trkpt lat="45.8653" lon="4.85208">
        <ele>217.181</ele>
        <time>2011-10-22T14:16:34Z</time>
      </trkpt>
      <trkpt lat="45.86516" lon="4.85213">
        <ele>216.316</ele>
        <time>2011-10-22T14:16:45Z</time>
      </trkpt>
      <trkpt lat="45.86499" lon="4.85219">
        <ele>215.394</ele>
        <time>2011-10-22T14:16:53Z</time>
      </trkpt>
      <trkpt lat="45.86492" lon="4.85221">
        <ele>214.752</ele>
        <time>2011-10-22T14:16:57Z</time>
      </trkpt>
      <trkpt lat="45.86479" lon="4.85228">
        <ele>214.139</ele>
        <time>2011-10-22T14:17:03Z</time>
      </trkpt>
      <trkpt lat="45.86452" lon="4.85247">
        <ele>216.36</ele>
        <time>2011-10-22T14:17:14Z</time>
      </trkpt>
      <trkpt lat="45.86435" lon="4.8526">
        <ele>218.27</ele>
        <time>2011-10-22T14:17:23Z</time>
      </trkpt>
      <trkpt lat="45.86427" lon="4.85267">
        <ele>217.905</ele>
        <time>2011-10-22T14:17:28Z</time>
      </trkpt>
      <trkpt lat="45.86426" lon="4.85268">
        <ele>218.886</ele>
        <time>2011-10-22T14:17:32Z</time>
      </trkpt>
      <trkpt lat="45.86426" lon="4.85268">
        <ele>218.755</ele>
        <time>2011-10-22T14:17:34Z</time>
      </trkpt>
      <trkpt lat="45.8642" lon="4.85273">
        <ele>218.637</ele>
        <time>2011-10-22T14:17:44Z</time>
      </trkpt>
      <trkpt lat="45.8642" lon="4.85273">
        <ele>220.936</ele>
        <time>2011-10-22T14:21:50Z</time>
      </trkpt>
      <trkpt lat="45.8642" lon="4.85273">
        <ele>222.122</ele>
        <time>2011-10-22T14:28:50Z</time>
      </trkpt>
      <trkpt lat="45.8642" lon="4.8529">
        <ele>222.11</ele>
        <time>2011-10-22T14:28:54Z</time>
      </trkpt>
      <trkpt lat="45.86421" lon="4.85316">
        <ele>220.715</ele>
        <time>2011-10-22T14:29:05Z</time>
      </trkpt>
      <trkpt lat="45.86419" lon="4.85338">
        <ele>220.591</ele>
        <time>2011-10-22T14:29:14Z</time>
      </trkpt>
      <trkpt lat="45.86419" lon="4.8534">
        <ele>220.449</ele>
        <time>2011-10-22T14:29:17Z</time>
      </trkpt>
      <trkpt lat="45.86416" lon="4.85364">
        <ele>220.739</ele>
        <time>2011-10-22T14:29:29Z</time>
      </trkpt>
      <trkpt lat="45.86414" lon="4.85374">
        <ele>221.001</ele>
        <time>2011-10-22T14:29:33Z</time>
      </trkpt>
      <trkpt lat="45.86414" lon="4.85374">
        <ele>222.083</ele>
        <time>2011-10-22T14:29:38Z</time>
      </trkpt>
      <trkpt lat="45.86408" lon="4.85404">
        <ele>221.718</ele>
        <time>2011-10-22T14:29:47Z</time>
      </trkpt>
      <trkpt lat="45.86408" lon="4.85406">
        <ele>222.49</ele>
        <time>2011-10-22T14:29:59Z</time>
      </trkpt>
      <trkpt lat="45.86408" lon="4.85406">
        <ele>224.206</ele>
        <time>2011-10-22T14:30:11Z</time>
      </trkpt>
      <trkpt lat="45.86408" lon="4.85406">
        <ele>224.169</ele>
        <time>2011-10-22T14:30:15Z</time>
      </trkpt>
      <trkpt lat="45.86408" lon="4.85406">
        <ele>223.962</ele>
        <time>2011-10-22T14:30:24Z</time>
      </trkpt>
      <trkpt lat="45.86408" lon="4.85406">
        <ele>224.977</ele>
        <time>2011-10-22T14:30:38Z</time>
      </trkpt>
      <trkpt lat="45.86408" lon="4.85406">
        <ele>225.653</ele>
        <time>2011-10-22T14:30:50Z</time>
      </trkpt>
      <trkpt lat="45.86408" lon="4.85406">
        <ele>227</ele>
        <time>2011-10-22T14:31:01Z</time>
      </trkpt>
      <trkpt lat="45.86408" lon="4.85406">
        <ele>228.336</ele>
        <time>2011-10-22T14:31:13Z</time>
      </trkpt>
      <trkpt lat="45.86408" lon="4.85406">
        <ele>229.381</ele>
        <time>2011-10-22T14:31:31Z</time>
      </trkpt>
      <trkpt lat="45.86407" lon="4.85536">
        <ele>247.191</ele>
        <time>2011-10-22T14:37:25Z</time>
      </trkpt>
      <trkpt lat="45.86407" lon="4.85536">
        <ele>250.166</ele>
        <time>2011-10-22T14:37:38Z</time>
      </trkpt>
      <trkpt lat="45.86407" lon="4.85536">
        <ele>253.393</ele>
        <time>2011-10-22T14:37:44Z</time>
      </trkpt>
      <trkpt lat="45.86401" lon="4.85578">
        <ele>255.693</ele>
        <time>2011-10-22T14:37:54Z</time>
      </trkpt>
      <trkpt lat="45.864" lon="4.85584">
        <ele>256.408</ele>
        <time>2011-10-22T14:37:59Z</time>
      </trkpt>
      <trkpt lat="45.86397" lon="4.85596">
        <ele>257.341</ele>
        <time>2011-10-22T14:38:04Z</time>
      </trkpt>
      <trkpt lat="45.86397" lon="4.85596">
        <ele>258.474</ele>
        <time>2011-10-22T14:38:07Z</time>
      </trkpt>
      <trkpt lat="45.86393" lon="4.85609">
        <ele>260.242</ele>
        <time>2011-10-22T14:38:10Z</time>
      </trkpt>
      <trkpt lat="45.86397" lon="4.8563">
        <ele>264.115</ele>
        <time>2011-10-22T14:38:23Z</time>
      </trkpt>
      <trkpt lat="45.86396" lon="4.85648">
        <ele>265.112</ele>
        <time>2011-10-22T14:38:34Z</time>
      </trkpt>
      <trkpt lat="45.86392" lon="4.85669">
        <ele>266.688</ele>
        <time>2011-10-22T14:38:50Z</time>
      </trkpt>
      <trkpt lat="45.86388" lon="4.85691">
        <ele>267.633</ele>
        <time>2011-10-22T14:39:10Z</time>
      </trkpt>
      <trkpt lat="45.86384" lon="4.85725">
        <ele>268.412</ele>
        <time>2011-10-22T14:39:27Z</time>
      </trkpt>
      <trkpt lat="45.86379" lon="4.85746">
        <ele>268.713</ele>
        <time>2011-10-22T14:39:37Z</time>
      </trkpt>
      <trkpt lat="45.86373" lon="4.85764">
        <ele>269.106</ele>
        <time>2011-10-22T14:39:46Z</time>
      </trkpt>
      <trkpt lat="45.8637" lon="4.85789">
        <ele>270.447</ele>
        <time>2011-10-22T14:39:58Z</time>
      </trkpt>
      <trkpt lat="45.86363" lon="4.85809">
        <ele>273.166</ele>
        <time>2011-10-22T14:40:09Z</time>
      </trkpt>
      <trkpt lat="45.86357" lon="4.85825">
        <ele>275.934</ele>
        <time>2011-10-22T14:40:19Z</time>
      </trkpt>
      <trkpt lat="45.86355" lon="4.85827">
        <ele>276.773</ele>
        <time>2011-10-22T14:40:21Z</time>
      </trkpt>
      <trkpt lat="45.86346" lon="4.85837">
        <ele>280.067</ele>
        <time>2011-10-22T14:40:29Z</time>
      </trkpt>
      <trkpt lat="45.86343" lon="4.85853">
        <ele>282.783</ele>
        <time>2011-10-22T14:40:41Z</time>
      </trkpt>
      <trkpt lat="45.86342" lon="4.85865">
        <ele>282.441</ele>
        <time>2011-10-22T14:41:15Z</time>
      </trkpt>
      <trkpt lat="45.86344" lon="4.85871">
        <ele>282.994</ele>
        <time>2011-10-22T14:41:32Z</time>
      </trkpt>
      <trkpt lat="45.86345" lon="4.85872">
        <ele>282.298</ele>
        <time>2011-10-22T14:42:01Z</time>
      </trkpt>
      <trkpt lat="45.86354" lon="4.85884">
        <ele>281.253</ele>
        <time>2011-10-22T14:42:09Z</time>
      </trkpt>
      <trkpt lat="45.86366" lon="4.85893">
        <ele>282.232</ele>
        <time>2011-10-22T14:42:22Z</time>
      </trkpt>
      <trkpt lat="45.86365" lon="4.85893">
        <ele>282.074</ele>
        <time>2011-10-22T14:43:03Z</time>
      </trkpt>
      <trkpt lat="45.86378" lon="4.85898">
        <ele>282.865</ele>
        <time>2011-10-22T14:43:24Z</time>
      </trkpt>
      <trkpt lat="45.86397" lon="4.85906">
        <ele>285.71</ele>
        <time>2011-10-22T14:43:35Z</time>
      </trkpt>
      <trkpt lat="45.86413" lon="4.85913">
        <ele>288.62</ele>
        <time>2011-10-22T14:43:45Z</time>
      </trkpt>
      <trkpt lat="45.86431" lon="4.85928">
        <ele>291.352</ele>
        <time>2011-10-22T14:43:56Z</time>
      </trkpt>
      <trkpt lat="45.86434" lon="4.85963">
        <ele>292.075</ele>
        <time>2011-10-22T14:44:08Z</time>
      </trkpt>
      <trkpt lat="45.86431" lon="4.85988">
        <ele>293.52</ele>
        <time>2011-10-22T14:44:18Z</time>
      </trkpt>
      <trkpt lat="45.86431" lon="4.86013">
        <ele>290.76</ele>
        <time>2011-10-22T14:44:31Z</time>
      </trkpt>
      <trkpt lat="45.86432" lon="4.86034">
        <ele>289.99</ele>
        <time>2011-10-22T14:44:40Z</time>
      </trkpt>
      <trkpt lat="45.86445" lon="4.86047">
        <ele>290.928</ele>
        <time>2011-10-22T14:44:51Z</time>
      </trkpt>
      <trkpt lat="45.86446" lon="4.86047">
        <ele>291.923</ele>
        <time>2011-10-22T14:45:17Z</time>
      </trkpt>
      <trkpt lat="45.8646" lon="4.86047">
        <ele>294.082</ele>
        <time>2011-10-22T14:48:54Z</time>
      </trkpt>
      <trkpt lat="45.86483" lon="4.86052">
        <ele>296.181</ele>
        <time>2011-10-22T14:49:06Z</time>
      </trkpt>
      <trkpt lat="45.8649" lon="4.86079">
        <ele>294.117</ele>
        <time>2011-10-22T14:49:16Z</time>
      </trkpt>
      <trkpt lat="45.86495" lon="4.86144">
        <ele>291.312</ele>
        <time>2011-10-22T14:49:28Z</time>
      </trkpt>
      <trkpt lat="45.86498" lon="4.8618">
        <ele>290.602</ele>
        <time>2011-10-22T14:49:33Z</time>
      </trkpt>
      <trkpt lat="45.86501" lon="4.86203">
        <ele>290.152</ele>
        <time>2011-10-22T14:49:36Z</time>
      </trkpt>
      <trkpt lat="45.86505" lon="4.86285">
        <ele>290.093</ele>
        <time>2011-10-22T14:49:49Z</time>
      </trkpt>
      <trkpt lat="45.86505" lon="4.86372">
        <ele>285.477</ele>
        <time>2011-10-22T14:49:59Z</time>
      </trkpt>
      <trkpt lat="45.86505" lon="4.86401">
        <ele>284.269</ele>
        <time>2011-10-22T14:50:02Z</time>
      </trkpt>
      <trkpt lat="45.86507" lon="4.86475">
        <ele>284.663</ele>
        <time>2011-10-22T14:50:11Z</time>
      </trkpt>
      <trkpt lat="45.86506" lon="4.8653">
        <ele>288.858</ele>
        <time>2011-10-22T14:50:18Z</time>
      </trkpt>
      <trkpt lat="45.86504" lon="4.86544">
        <ele>288.912</ele>
        <time>2011-10-22T14:50:20Z</time>
      </trkpt>
      <trkpt lat="45.86499" lon="4.86554">
        <ele>289.649</ele>
        <time>2011-10-22T14:50:22Z</time>
      </trkpt>
      <trkpt lat="45.86475" lon="4.86585">
        <ele>292.955</ele>
        <time>2011-10-22T14:50:31Z</time>
      </trkpt>
      <trkpt lat="45.86462" lon="4.86612">
        <ele>293.078</ele>
        <time>2011-10-22T14:50:40Z</time>
      </trkpt>
      <trkpt lat="45.8646" lon="4.86632">
        <ele>291.851</ele>
        <time>2011-10-22T14:50:44Z</time>
      </trkpt>
      <trkpt lat="45.86457" lon="4.86658">
        <ele>291.578</ele>
        <time>2011-10-22T14:50:48Z</time>
      </trkpt>
      <trkpt lat="45.8645" lon="4.8672">
        <ele>291.048</ele>
        <time>2011-10-22T14:50:58Z</time>
      </trkpt>
      <trkpt lat="45.86447" lon="4.86759">
        <ele>291.04</ele>
        <time>2011-10-22T14:51:07Z</time>
      </trkpt>
      <trkpt lat="45.86447" lon="4.86764">
        <ele>291.075</ele>
        <time>2011-10-22T14:51:09Z</time>
      </trkpt>
      <trkpt lat="45.86446" lon="4.86771">
        <ele>291.21</ele>
        <time>2011-10-22T14:51:14Z</time>
      </trkpt>
      <trkpt lat="45.86446" lon="4.86776">
        <ele>291.928</ele>
        <time>2011-10-22T14:51:28Z</time>
      </trkpt>
      <trkpt lat="45.86441" lon="4.86814">
        <ele>294.768</ele>
        <time>2011-10-22T14:51:39Z</time>
      </trkpt>
      <trkpt lat="45.8643" lon="4.86884">
        <ele>292.997</ele>
        <time>2011-10-22T14:51:53Z</time>
      </trkpt>
      <trkpt lat="45.8643" lon="4.86897">
        <ele>293.142</ele>
        <time>2011-10-22T14:51:55Z</time>
      </trkpt>
      <trkpt lat="45.86446" lon="4.86913">
        <ele>292.213</ele>
        <time>2011-10-22T14:51:59Z</time>
      </trkpt>
      <trkpt lat="45.86483" lon="4.86936">
        <ele>292.302</ele>
        <time>2011-10-22T14:52:06Z</time>
      </trkpt>
      <trkpt lat="45.86514" lon="4.86955">
        <ele>288.454</ele>
        <time>2011-10-22T14:52:15Z</time>
      </trkpt>
      <trkpt lat="45.86564" lon="4.86986">
        <ele>284.705</ele>
        <time>2011-10-22T14:52:26Z</time>
      </trkpt>
      <trkpt lat="45.86615" lon="4.87018">
        <ele>283.156</ele>
        <time>2011-10-22T14:52:34Z</time>
      </trkpt>
      <trkpt lat="45.86667" lon="4.87049">
        <ele>282.494</ele>
        <time>2011-10-22T14:52:43Z</time>
      </trkpt>
      <trkpt lat="45.86713" lon="4.87059">
        <ele>281.557</ele>
        <time>2011-10-22T14:52:53Z</time>
      </trkpt>
      <trkpt lat="45.8677" lon="4.87051">
        <ele>280.345</ele>
        <time>2011-10-22T14:53:05Z</time>
      </trkpt>
      <trkpt lat="45.86819" lon="4.87033">
        <ele>280.035</ele>
        <time>2011-10-22T14:53:16Z</time>
      </trkpt>
      <trkpt lat="45.86843" lon="4.87023">
        <ele>279.41</ele>
        <time>2011-10-22T14:53:21Z</time>
      </trkpt>
      <trkpt lat="45.86902" lon="4.87006">
        <ele>278.205</ele>
        <time>2011-10-22T14:53:32Z</time>
      </trkpt>
      <trkpt lat="45.86959" lon="4.86995">
        <ele>276.909</ele>
        <time>2011-10-22T14:53:43Z</time>
      </trkpt>
      <trkpt lat="45.86975" lon="4.86991">
        <ele>277.057</ele>
        <time>2011-10-22T14:53:46Z</time>
      </trkpt>
      <trkpt lat="45.87021" lon="4.86986">
        <ele>277.659</ele>
        <time>2011-10-22T14:53:56Z</time>
      </trkpt>
      <trkpt lat="45.8704" lon="4.86986">
        <ele>278.487</ele>
        <time>2011-10-22T14:54:05Z</time>
      </trkpt>
      <trkpt lat="45.8704" lon="4.86986">
        <ele>278.954</ele>
        <time>2011-10-22T14:54:06Z</time>
      </trkpt>
      <trkpt lat="45.87044" lon="4.87013">
        <ele>278.015</ele>
        <time>2011-10-22T14:54:15Z</time>
      </trkpt>
      <trkpt lat="45.87044" lon="4.87017">
        <ele>277.52</ele>
        <time>2011-10-22T14:54:16Z</time>
      </trkpt>
      <trkpt lat="45.87045" lon="4.87073">
        <ele>277.565</ele>
        <time>2011-10-22T14:54:28Z</time>
      </trkpt>
      <trkpt lat="45.87058" lon="4.8708">
        <ele>275.691</ele>
        <time>2011-10-22T14:54:32Z</time>
      </trkpt>
      <trkpt lat="45.87065" lon="4.87083">
        <ele>275.628</ele>
        <time>2011-10-22T14:54:34Z</time>
      </trkpt>
      <trkpt lat="45.87093" lon="4.87107">
        <ele>273.41</ele>
        <time>2011-10-22T14:54:40Z</time>
      </trkpt>
      <trkpt lat="45.87096" lon="4.87116">
        <ele>272.693</ele>
        <time>2011-10-22T14:54:41Z</time>
      </trkpt>
      <trkpt lat="45.87124" lon="4.8721">
        <ele>270.234</ele>
        <time>2011-10-22T14:54:52Z</time>
      </trkpt>
      <trkpt lat="45.87126" lon="4.87219">
        <ele>270.382</ele>
        <time>2011-10-22T14:54:53Z</time>
      </trkpt>
      <trkpt lat="45.87108" lon="4.87265">
        <ele>268.904</ele>
        <time>2011-10-22T14:54:59Z</time>
      </trkpt>
      <trkpt lat="45.87101" lon="4.87286">
        <ele>268.146</ele>
        <time>2011-10-22T14:55:02Z</time>
      </trkpt>
      <trkpt lat="45.87097" lon="4.87299">
        <ele>267.67</ele>
        <time>2011-10-22T14:55:04Z</time>
      </trkpt>
      <trkpt lat="45.87075" lon="4.87347">
        <ele>266.615</ele>
        <time>2011-10-22T14:55:13Z</time>
      </trkpt>
      <trkpt lat="45.87054" lon="4.87383">
        <ele>265.743</ele>
        <time>2011-10-22T14:55:19Z</time>
      </trkpt>
      <trkpt lat="45.87029" lon="4.87429">
        <ele>263.387</ele>
        <time>2011-10-22T14:55:30Z</time>
      </trkpt>
      <trkpt lat="45.87012" lon="4.87457">
        <ele>263.107</ele>
        <time>2011-10-22T14:55:39Z</time>
      </trkpt>
      <trkpt lat="45.86999" lon="4.8748">
        <ele>260.745</ele>
        <time>2011-10-22T14:55:48Z</time>
      </trkpt>
      <trkpt lat="45.86996" lon="4.87532">
        <ele>261.197</ele>
        <time>2011-10-22T14:55:59Z</time>
      </trkpt>
      <trkpt lat="45.87009" lon="4.87588">
        <ele>261.45</ele>
        <time>2011-10-22T14:56:10Z</time>
      </trkpt>
      <trkpt lat="45.87036" lon="4.8762">
        <ele>263.124</ele>
        <time>2011-10-22T14:56:21Z</time>
      </trkpt>
      <trkpt lat="45.87039" lon="4.87624">
        <ele>264.383</ele>
        <time>2011-10-22T14:56:23Z</time>
      </trkpt>
      <trkpt lat="45.87026" lon="4.87643">
        <ele>263.711</ele>
        <time>2011-10-22T14:56:33Z</time>
      </trkpt>
      <trkpt lat="45.87013" lon="4.87665">
        <ele>262.276</ele>
        <time>2011-10-22T14:56:41Z</time>
      </trkpt>
      <trkpt lat="45.86985" lon="4.87726">
        <ele>261.449</ele>
        <time>2011-10-22T14:56:55Z</time>
      </trkpt>
      <trkpt lat="45.86953" lon="4.87789">
        <ele>263.461</ele>
        <time>2011-10-22T14:57:09Z</time>
      </trkpt>
      <trkpt lat="45.8692" lon="4.87832">
        <ele>261.956</ele>
        <time>2011-10-22T14:57:20Z</time>
      </trkpt>
      <trkpt lat="45.86896" lon="4.87858">
        <ele>261.837</ele>
        <time>2011-10-22T14:57:27Z</time>
      </trkpt>
      <trkpt lat="45.86876" lon="4.87838">
        <ele>261.629</ele>
        <time>2011-10-22T14:57:34Z</time>
      </trkpt>
      <trkpt lat="45.86859" lon="4.87799">
        <ele>261.337</ele>
        <time>2011-10-22T14:57:44Z</time>
      </trkpt>
      <trkpt lat="45.86845" lon="4.87766">
        <ele>262.636</ele>
        <time>2011-10-22T14:57:52Z</time>
      </trkpt>
      <trkpt lat="45.86843" lon="4.87762">
        <ele>263.019</ele>
        <time>2011-10-22T14:57:53Z</time>
      </trkpt>
      <trkpt lat="45.8681" lon="4.87725">
        <ele>261.72</ele>
        <time>2011-10-22T14:58:04Z</time>
      </trkpt>
      <trkpt lat="45.86788" lon="4.87695">
        <ele>261.707</ele>
        <time>2011-10-22T14:58:14Z</time>
      </trkpt>
      <trkpt lat="45.86765" lon="4.87662">
        <ele>260.917</ele>
        <time>2011-10-22T14:58:24Z</time>
      </trkpt>
      <trkpt lat="45.86733" lon="4.87625">
        <ele>261.187</ele>
        <time>2011-10-22T14:58:34Z</time>
      </trkpt>
      <trkpt lat="45.86722" lon="4.87618">
        <ele>261.299</ele>
        <time>2011-10-22T14:58:37Z</time>
      </trkpt>
      <trkpt lat="45.86713" lon="4.87614">
        <ele>260.538</ele>
        <time>2011-10-22T14:58:39Z</time>
      </trkpt>
      <trkpt lat="45.86671" lon="4.87619">
        <ele>256.783</ele>
        <time>2011-10-22T14:58:49Z</time>
      </trkpt>
      <trkpt lat="45.86662" lon="4.87625">
        <ele>256.436</ele>
        <time>2011-10-22T14:58:51Z</time>
      </trkpt>
      <trkpt lat="45.86641" lon="4.87656">
        <ele>254.569</ele>
        <time>2011-10-22T14:58:57Z</time>
      </trkpt>
      <trkpt lat="45.86633" lon="4.8767">
        <ele>254.044</ele>
        <time>2011-10-22T14:59:00Z</time>
      </trkpt>
      <trkpt lat="45.86611" lon="4.87684">
        <ele>254.541</ele>
        <time>2011-10-22T14:59:07Z</time>
      </trkpt>
      <trkpt lat="45.86601" lon="4.87666">
        <ele>253.69</ele>
        <time>2011-10-22T14:59:13Z</time>
      </trkpt>
      <trkpt lat="45.86577" lon="4.87658">
        <ele>254.399</ele>
        <time>2011-10-22T14:59:14Z</time>
      </trkpt>
      <trkpt lat="45.86591" lon="4.87658">
        <ele>257.33</ele>
        <time>2011-10-22T14:59:24Z</time>
      </trkpt>
      <trkpt lat="45.86577" lon="4.87658">
        <ele>258.378</ele>
        <time>2011-10-22T15:00:38Z</time>
      </trkpt>
      <trkpt lat="45.86536" lon="4.87654">
        <ele>257.003</ele>
        <time>2011-10-22T15:00:46Z</time>
      </trkpt>
      <trkpt lat="45.86519" lon="4.87647">
        <ele>256.356</ele>
        <time>2011-10-22T15:00:49Z</time>
      </trkpt>
      <trkpt lat="45.86494" lon="4.87642">
        <ele>255.051</ele>
        <time>2011-10-22T15:00:53Z</time>
      </trkpt>
      <trkpt lat="45.86473" lon="4.87647">
        <ele>254.161</ele>
        <time>2011-10-22T15:00:58Z</time>
      </trkpt>
      <trkpt lat="45.86471" lon="4.87646">
        <ele>251.997</ele>
        <time>2011-10-22T15:01:08Z</time>
      </trkpt>
      <trkpt lat="45.86471" lon="4.87646">
        <ele>251.353</ele>
        <time>2011-10-22T15:01:24Z</time>
      </trkpt>
      <trkpt lat="45.86439" lon="4.87643">
        <ele>253.734</ele>
        <time>2011-10-22T15:01:33Z</time>
      </trkpt>
      <trkpt lat="45.86436" lon="4.87644">
        <ele>253.932</ele>
        <time>2011-10-22T15:01:34Z</time>
      </trkpt>
      <trkpt lat="45.86415" lon="4.87656">
        <ele>253.325</ele>
        <time>2011-10-22T15:01:39Z</time>
      </trkpt>
      <trkpt lat="45.864" lon="4.87664">
        <ele>252.381</ele>
        <time>2011-10-22T15:01:43Z</time>
      </trkpt>
      <trkpt lat="45.86392" lon="4.8767">
        <ele>252.096</ele>
        <time>2011-10-22T15:01:46Z</time>
      </trkpt>
      <trkpt lat="45.86383" lon="4.87676">
        <ele>251.209</ele>
        <time>2011-10-22T15:01:54Z</time>
      </trkpt>
      <trkpt lat="45.86383" lon="4.87676">
        <ele>251.403</ele>
        <time>2011-10-22T15:02:04Z</time>
      </trkpt>
      <trkpt lat="45.86356" lon="4.87661">
        <ele>252.016</ele>
        <time>2011-10-22T15:02:13Z</time>
      </trkpt>
      <trkpt lat="45.86331" lon="4.87653">
        <ele>252.65</ele>
        <time>2011-10-22T15:02:21Z</time>
      </trkpt>
      <trkpt lat="45.86319" lon="4.87652">
        <ele>253.727</ele>
        <time>2011-10-22T15:02:25Z</time>
      </trkpt>
      <trkpt lat="45.86307" lon="4.87652">
        <ele>252.385</ele>
        <time>2011-10-22T15:02:33Z</time>
      </trkpt>
      <trkpt lat="45.86307" lon="4.87652">
        <ele>252.29</ele>
        <time>2011-10-22T15:02:34Z</time>
      </trkpt>
      <trkpt lat="45.86282" lon="4.87642">
        <ele>252.139</ele>
        <time>2011-10-22T15:02:40Z</time>
      </trkpt>
      <trkpt lat="45.8627" lon="4.87636">
        <ele>251.28</ele>
        <time>2011-10-22T15:02:45Z</time>
      </trkpt>
      <trkpt lat="45.8626" lon="4.87632">
        <ele>250.904</ele>
        <time>2011-10-22T15:02:49Z</time>
      </trkpt>
      <trkpt lat="45.86248" lon="4.87627">
        <ele>249.965</ele>
        <time>2011-10-22T15:02:52Z</time>
      </trkpt>
      <trkpt lat="45.86239" lon="4.87624">
        <ele>249.525</ele>
        <time>2011-10-22T15:02:56Z</time>
      </trkpt>
      <trkpt lat="45.86207" lon="4.87621">
        <ele>247.351</ele>
        <time>2011-10-22T15:03:04Z</time>
      </trkpt>
      <trkpt lat="45.86167" lon="4.87641">
        <ele>247.558</ele>
        <time>2011-10-22T15:03:13Z</time>
      </trkpt>
      <trkpt lat="45.86163" lon="4.87644">
        <ele>247.642</ele>
        <time>2011-10-22T15:03:14Z</time>
      </trkpt>
      <trkpt lat="45.86117" lon="4.8766">
        <ele>248.394</ele>
        <time>2011-10-22T15:03:25Z</time>
      </trkpt>
      <trkpt lat="45.86112" lon="4.87661">
        <ele>247.836</ele>
        <time>2011-10-22T15:03:32Z</time>
      </trkpt>
      <trkpt lat="45.8611" lon="4.87662">
        <ele>249.055</ele>
        <time>2011-10-22T15:03:47Z</time>
      </trkpt>
      <trkpt lat="45.86067" lon="4.87666">
        <ele>249.335</ele>
        <time>2011-10-22T15:03:55Z</time>
      </trkpt>
      <trkpt lat="45.86045" lon="4.87676">
        <ele>249.808</ele>
        <time>2011-10-22T15:04:03Z</time>
      </trkpt>
      <trkpt lat="45.86032" lon="4.87698">
        <ele>248.445</ele>
        <time>2011-10-22T15:04:11Z</time>
      </trkpt>
      <trkpt lat="45.86032" lon="4.87698">
        <ele>247.796</ele>
        <time>2011-10-22T15:04:23Z</time>
      </trkpt>
      <trkpt lat="45.86032" lon="4.87698">
        <ele>247.894</ele>
        <time>2011-10-22T15:04:33Z</time>
      </trkpt>
      <trkpt lat="45.86054" lon="4.87663">
        <ele>247.834</ele>
        <time>2011-10-22T15:04:42Z</time>
      </trkpt>
      <trkpt lat="45.86065" lon="4.87679">
        <ele>249.075</ele>
        <time>2011-10-22T15:04:47Z</time>
      </trkpt>
      <trkpt lat="45.86065" lon="4.87703">
        <ele>248.744</ele>
        <time>2011-10-22T15:04:56Z</time>
      </trkpt>
      <trkpt lat="45.86063" lon="4.87739">
        <ele>248.836</ele>
        <time>2011-10-22T15:05:07Z</time>
      </trkpt>
      <trkpt lat="45.8606" lon="4.87778">
        <ele>249.342</ele>
        <time>2011-10-22T15:05:19Z</time>
      </trkpt>
      <trkpt lat="45.86052" lon="4.87829">
        <ele>250.116</ele>
        <time>2011-10-22T15:05:31Z</time>
      </trkpt>
      <trkpt lat="45.86067" lon="4.87939">
        <ele>249.112</ele>
        <time>2011-10-22T15:05:41Z</time>
      </trkpt>
      <trkpt lat="45.86067" lon="4.87939">
        <ele>251.058</ele>
        <time>2011-10-22T15:05:49Z</time>
      </trkpt>
      <trkpt lat="45.86063" lon="4.8796">
        <ele>249.664</ele>
        <time>2011-10-22T15:05:52Z</time>
      </trkpt>
      <trkpt lat="45.86056" lon="4.87984">
        <ele>248.641</ele>
        <time>2011-10-22T15:06:00Z</time>
      </trkpt>
      <trkpt lat="45.86029" lon="4.87994">
        <ele>248.756</ele>
        <time>2011-10-22T15:06:07Z</time>
      </trkpt>
      <trkpt lat="45.86023" lon="4.88">
        <ele>249.142</ele>
        <time>2011-10-22T15:06:16Z</time>
      </trkpt>
      <trkpt lat="45.86029" lon="4.87997">
        <ele>249.963</ele>
        <time>2011-10-22T15:07:46Z</time>
      </trkpt>
      <trkpt lat="45.86042" lon="4.88003">
        <ele>251.183</ele>
        <time>2011-10-22T15:07:54Z</time>
      </trkpt>
      <trkpt lat="45.86036" lon="4.8803">
        <ele>249.14</ele>
        <time>2011-10-22T15:08:02Z</time>
      </trkpt>
      <trkpt lat="45.86022" lon="4.88036">
        <ele>249.913</ele>
        <time>2011-10-22T15:08:08Z</time>
      </trkpt>
      <trkpt lat="45.8601" lon="4.88023">
        <ele>253.466</ele>
        <time>2011-10-22T15:08:17Z</time>
      </trkpt>
      <trkpt lat="45.85994" lon="4.88025">
        <ele>254.056</ele>
        <time>2011-10-22T15:08:25Z</time>
      </trkpt>
      <trkpt lat="45.85979" lon="4.8804">
        <ele>254.701</ele>
        <time>2011-10-22T15:08:35Z</time>
      </trkpt>
      <trkpt lat="45.85976" lon="4.88041">
        <ele>254.442</ele>
        <time>2011-10-22T15:08:38Z</time>
      </trkpt>
      <trkpt lat="45.85977" lon="4.88052">
        <ele>254.25</ele>
        <time>2011-10-22T15:08:46Z</time>
      </trkpt>
      <trkpt lat="45.85984" lon="4.88071">
        <ele>255.325</ele>
        <time>2011-10-22T15:09:00Z</time>
      </trkpt>
      <trkpt lat="45.86003" lon="4.8812">
        <ele>255.952</ele>
        <time>2011-10-22T15:09:14Z</time>
      </trkpt>
      <trkpt lat="45.86018" lon="4.88156">
        <ele>254.819</ele>
        <time>2011-10-22T15:09:27Z</time>
      </trkpt>
      <trkpt lat="45.8602" lon="4.88164">
        <ele>254.625</ele>
        <time>2011-10-22T15:09:36Z</time>
      </trkpt>
      <trkpt lat="45.86023" lon="4.8817">
        <ele>254.864</ele>
        <time>2011-10-22T15:09:51Z</time>
      </trkpt>
      <trkpt lat="45.86062" lon="4.88173">
        <ele>253.725</ele>
        <time>2011-10-22T15:10:00Z</time>
      </trkpt>
      <trkpt lat="45.8612" lon="4.88168">
        <ele>256.3</ele>
        <time>2011-10-22T15:10:12Z</time>
      </trkpt>
      <trkpt lat="45.86132" lon="4.88204">
        <ele>255.894</ele>
        <time>2011-10-22T15:10:19Z</time>
      </trkpt>
      <trkpt lat="45.86148" lon="4.88252">
        <ele>258.607</ele>
        <time>2011-10-22T15:10:30Z</time>
      </trkpt>
      <trkpt lat="45.86165" lon="4.88301">
        <ele>259.454</ele>
        <time>2011-10-22T15:10:42Z</time>
      </trkpt>
      <trkpt lat="45.8618" lon="4.88352">
        <ele>259.716</ele>
        <time>2011-10-22T15:10:53Z</time>
      </trkpt>
      <trkpt lat="45.86193" lon="4.88401">
        <ele>259.714</ele>
        <time>2011-10-22T15:11:04Z</time>
      </trkpt>
      <trkpt lat="45.86204" lon="4.8846">
        <ele>259.103</ele>
        <time>2011-10-22T15:11:17Z</time>
      </trkpt>
      <trkpt lat="45.86208" lon="4.88499">
        <ele>257.089</ele>
        <time>2011-10-22T15:11:29Z</time>
      </trkpt>
      <trkpt lat="45.86187" lon="4.8852">
        <ele>257.559</ele>
        <time>2011-10-22T15:11:36Z</time>
      </trkpt>
      <trkpt lat="45.86151" lon="4.88527">
        <ele>257.287</ele>
        <time>2011-10-22T15:11:46Z</time>
      </trkpt>
      <trkpt lat="45.86131" lon="4.88531">
        <ele>255.532</ele>
        <time>2011-10-22T15:11:51Z</time>
      </trkpt>
      <trkpt lat="45.86121" lon="4.88553">
        <ele>256.084</ele>
        <time>2011-10-22T15:11:56Z</time>
      </trkpt>
      <trkpt lat="45.86127" lon="4.88603">
        <ele>255.566</ele>
        <time>2011-10-22T15:12:06Z</time>
      </trkpt>
      <trkpt lat="45.86127" lon="4.88606">
        <ele>255.119</ele>
        <time>2011-10-22T15:12:10Z</time>
      </trkpt>
      <trkpt lat="45.86101" lon="4.88621">
        <ele>257.189</ele>
        <time>2011-10-22T15:12:20Z</time>
      </trkpt>
      <trkpt lat="45.86068" lon="4.88627">
        <ele>260.34</ele>
        <time>2011-10-22T15:12:31Z</time>
      </trkpt>
      <trkpt lat="45.86036" lon="4.88633">
        <ele>261.921</ele>
        <time>2011-10-22T15:12:42Z</time>
      </trkpt>
      <trkpt lat="45.86" lon="4.88644">
        <ele>264.067</ele>
        <time>2011-10-22T15:12:55Z</time>
      </trkpt>
      <trkpt lat="45.85974" lon="4.88658">
        <ele>265.638</ele>
        <time>2011-10-22T15:13:04Z</time>
      </trkpt>
      <trkpt lat="45.85943" lon="4.88672">
        <ele>267.881</ele>
        <time>2011-10-22T15:13:17Z</time>
      </trkpt>
      <trkpt lat="45.85938" lon="4.88674">
        <ele>267.55</ele>
        <time>2011-10-22T15:13:27Z</time>
      </trkpt>
      <trkpt lat="45.8593" lon="4.88677">
        <ele>267.049</ele>
        <time>2011-10-22T15:13:59Z</time>
      </trkpt>
      <trkpt lat="45.85925" lon="4.88677">
        <ele>266.542</ele>
        <time>2011-10-22T15:14:07Z</time>
      </trkpt>
      <trkpt lat="45.85925" lon="4.88677">
        <ele>266.439</ele>
        <time>2011-10-22T15:14:27Z</time>
      </trkpt>
      <trkpt lat="45.85925" lon="4.88677">
        <ele>266.044</ele>
        <time>2011-10-22T15:15:55Z</time>
      </trkpt>
      <trkpt lat="45.85925" lon="4.88677">
        <ele>268.415</ele>
        <time>2011-10-22T15:17:33Z</time>
      </trkpt>
      <trkpt lat="45.85925" lon="4.88677">
        <ele>268.133</ele>
        <time>2011-10-22T15:17:52Z</time>
      </trkpt>
      <trkpt lat="45.85925" lon="4.88677">
        <ele>268.122</ele>
        <time>2011-10-22T15:17:59Z</time>
      </trkpt>
      <trkpt lat="45.85899" lon="4.88679">
        <ele>266.764</ele>
        <time>2011-10-22T15:18:09Z</time>
      </trkpt>
      <trkpt lat="45.85857" lon="4.88676">
        <ele>264.697</ele>
        <time>2011-10-22T15:18:19Z</time>
      </trkpt>
      <trkpt lat="45.85801" lon="4.88686">
        <ele>263.836</ele>
        <time>2011-10-22T15:18:32Z</time>
      </trkpt>
      <trkpt lat="45.85757" lon="4.88697">
        <ele>264.685</ele>
        <time>2011-10-22T15:18:45Z</time>
      </trkpt>
      <trkpt lat="45.85716" lon="4.88705">
        <ele>264.381</ele>
        <time>2011-10-22T15:18:57Z</time>
      </trkpt>
      <trkpt lat="45.85664" lon="4.88717">
        <ele>264.719</ele>
        <time>2011-10-22T15:19:11Z</time>
      </trkpt>
      <trkpt lat="45.85618" lon="4.88729">
        <ele>264.94</ele>
        <time>2011-10-22T15:19:24Z</time>
      </trkpt>
      <trkpt lat="45.85583" lon="4.88738">
        <ele>263.582</ele>
        <time>2011-10-22T15:19:35Z</time>
      </trkpt>
      <trkpt lat="45.85538" lon="4.88748">
        <ele>265.644</ele>
        <time>2011-10-22T15:19:48Z</time>
      </trkpt>
      <trkpt lat="45.85484" lon="4.88758">
        <ele>265.894</ele>
        <time>2011-10-22T15:20:01Z</time>
      </trkpt>
      <trkpt lat="45.85418" lon="4.88767">
        <ele>265.626</ele>
        <time>2011-10-22T15:20:17Z</time>
      </trkpt>
      <trkpt lat="45.85373" lon="4.88775">
        <ele>266.011</ele>
        <time>2011-10-22T15:20:28Z</time>
      </trkpt>
      <trkpt lat="45.85321" lon="4.88789">
        <ele>265.712</ele>
        <time>2011-10-22T15:20:39Z</time>
      </trkpt>
      <trkpt lat="45.85251" lon="4.88804">
        <ele>265.658</ele>
        <time>2011-10-22T15:20:54Z</time>
      </trkpt>
      <trkpt lat="45.85241" lon="4.88806">
        <ele>265.926</ele>
        <time>2011-10-22T15:20:56Z</time>
      </trkpt>
      <trkpt lat="45.85214" lon="4.88813">
        <ele>266.234</ele>
        <time>2011-10-22T15:21:02Z</time>
      </trkpt>
      <trkpt lat="45.85188" lon="4.88818">
        <ele>266.771</ele>
        <time>2011-10-22T15:21:08Z</time>
      </trkpt>
      <trkpt lat="45.85121" lon="4.88832">
        <ele>267.87</ele>
        <time>2011-10-22T15:21:23Z</time>
      </trkpt>
      <trkpt lat="45.85084" lon="4.88841">
        <ele>268.804</ele>
        <time>2011-10-22T15:21:32Z</time>
      </trkpt>
      <trkpt lat="45.85055" lon="4.88846">
        <ele>269.06</ele>
        <time>2011-10-22T15:21:40Z</time>
      </trkpt>
      <trkpt lat="45.8505" lon="4.88847">
        <ele>269.302</ele>
        <time>2011-10-22T15:21:47Z</time>
      </trkpt>
      <trkpt lat="45.85036" lon="4.88853">
        <ele>268.988</ele>
        <time>2011-10-22T15:21:56Z</time>
      </trkpt>
      <trkpt lat="45.84984" lon="4.88877">
        <ele>263.475</ele>
        <time>2011-10-22T15:22:05Z</time>
      </trkpt>
      <trkpt lat="45.84977" lon="4.88881">
        <ele>263.222</ele>
        <time>2011-10-22T15:22:06Z</time>
      </trkpt>
      <trkpt lat="45.84958" lon="4.8887">
        <ele>262.254</ele>
        <time>2011-10-22T15:22:10Z</time>
      </trkpt>
      <trkpt lat="45.84946" lon="4.88835">
        <ele>261.283</ele>
        <time>2011-10-22T15:22:15Z</time>
      </trkpt>
      <trkpt lat="45.84937" lon="4.88815">
        <ele>260.614</ele>
        <time>2011-10-22T15:22:18Z</time>
      </trkpt>
      <trkpt lat="45.84926" lon="4.88797">
        <ele>260.908</ele>
        <time>2011-10-22T15:22:22Z</time>
      </trkpt>
      <trkpt lat="45.84906" lon="4.88751">
        <ele>261.098</ele>
        <time>2011-10-22T15:22:29Z</time>
      </trkpt>
      <trkpt lat="45.84902" lon="4.88732">
        <ele>260.286</ele>
        <time>2011-10-22T15:22:32Z</time>
      </trkpt>
      <trkpt lat="45.84883" lon="4.88698">
        <ele>258.515</ele>
        <time>2011-10-22T15:22:39Z</time>
      </trkpt>
      <trkpt lat="45.8485" lon="4.88702">
        <ele>258.061</ele>
        <time>2011-10-22T15:22:50Z</time>
      </trkpt>
      <trkpt lat="45.84818" lon="4.88706">
        <ele>253.389</ele>
        <time>2011-10-22T15:23:01Z</time>
      </trkpt>
      <trkpt lat="45.84791" lon="4.88709">
        <ele>259.131</ele>
        <time>2011-10-22T15:23:08Z</time>
      </trkpt>
      <trkpt lat="45.84752" lon="4.88714">
        <ele>261.139</ele>
        <time>2011-10-22T15:23:20Z</time>
      </trkpt>
      <trkpt lat="45.84738" lon="4.88713">
        <ele>265.793</ele>
        <time>2011-10-22T15:23:29Z</time>
      </trkpt>
      <trkpt lat="45.8472" lon="4.88708">
        <ele>267.731</ele>
        <time>2011-10-22T15:23:50Z</time>
      </trkpt>
      <trkpt lat="45.84708" lon="4.88704">
        <ele>267.951</ele>
        <time>2011-10-22T15:24:00Z</time>
      </trkpt>
      <trkpt lat="45.84708" lon="4.88704">
        <ele>269.161</ele>
        <time>2011-10-22T15:24:14Z</time>
      </trkpt>
      <trkpt lat="45.84708" lon="4.88704">
        <ele>268.102</ele>
        <time>2011-10-22T15:24:25Z</time>
      </trkpt>
      <trkpt lat="45.84677" lon="4.88696">
        <ele>267.845</ele>
        <time>2011-10-22T15:24:39Z</time>
      </trkpt>
      <trkpt lat="45.84661" lon="4.88692">
        <ele>268.445</ele>
        <time>2011-10-22T15:24:49Z</time>
      </trkpt>
      <trkpt lat="45.84643" lon="4.88691">
        <ele>266.463</ele>
        <time>2011-10-22T15:25:00Z</time>
      </trkpt>
      <trkpt lat="45.84623" lon="4.88687">
        <ele>264.952</ele>
        <time>2011-10-22T15:25:11Z</time>
      </trkpt>
      <trkpt lat="45.84609" lon="4.88683">
        <ele>267.014</ele>
        <time>2011-10-22T15:25:22Z</time>
      </trkpt>
      <trkpt lat="45.84609" lon="4.88683">
        <ele>267.433</ele>
        <time>2011-10-22T15:25:27Z</time>
      </trkpt>
      <trkpt lat="45.84588" lon="4.88667">
        <ele>268.76</ele>
        <time>2011-10-22T15:25:36Z</time>
      </trkpt>
      <trkpt lat="45.84556" lon="4.88668">
        <ele>267.639</ele>
        <time>2011-10-22T15:25:46Z</time>
      </trkpt>
      <trkpt lat="45.8455" lon="4.88668">
        <ele>268.33</ele>
        <time>2011-10-22T15:25:51Z</time>
      </trkpt>
      <trkpt lat="45.84529" lon="4.8866">
        <ele>265.718</ele>
        <time>2011-10-22T15:25:59Z</time>
      </trkpt>
      <trkpt lat="45.84506" lon="4.88666">
        <ele>263.756</ele>
        <time>2011-10-22T15:26:09Z</time>
      </trkpt>
      <trkpt lat="45.84489" lon="4.88659">
        <ele>263.514</ele>
        <time>2011-10-22T15:26:16Z</time>
      </trkpt>
      <trkpt lat="45.84485" lon="4.88656">
        <ele>263.228</ele>
        <time>2011-10-22T15:26:18Z</time>
      </trkpt>
      <trkpt lat="45.84471" lon="4.88655">
        <ele>262.761</ele>
        <time>2011-10-22T15:26:25Z</time>
      </trkpt>
      <trkpt lat="45.84465" lon="4.88657">
        <ele>266.563</ele>
        <time>2011-10-22T15:26:30Z</time>
      </trkpt>
      <trkpt lat="45.84465" lon="4.88657">
        <ele>270.006</ele>
        <time>2011-10-22T15:26:41Z</time>
      </trkpt>
      <trkpt lat="45.84465" lon="4.88657">
        <ele>270.551</ele>
        <time>2011-10-22T15:26:44Z</time>
      </trkpt>
      <trkpt lat="45.84428" lon="4.88671">
        <ele>271.295</ele>
        <time>2011-10-22T15:26:55Z</time>
      </trkpt>
      <trkpt lat="45.84428" lon="4.88671">
        <ele>272.61</ele>
        <time>2011-10-22T15:27:07Z</time>
      </trkpt>
      <trkpt lat="45.84428" lon="4.88671">
        <ele>273.193</ele>
        <time>2011-10-22T15:27:19Z</time>
      </trkpt>
      <trkpt lat="45.84413" lon="4.88713">
        <ele>273.38</ele>
        <time>2011-10-22T15:27:45Z</time>
      </trkpt>
      <trkpt lat="45.844" lon="4.88737">
        <ele>274.821</ele>
        <time>2011-10-22T15:27:54Z</time>
      </trkpt>
      <trkpt lat="45.84384" lon="4.8877">
        <ele>276.25</ele>
        <time>2011-10-22T15:28:04Z</time>
      </trkpt>
      <trkpt lat="45.84371" lon="4.88787">
        <ele>277.146</ele>
        <time>2011-10-22T15:28:13Z</time>
      </trkpt>
      <trkpt lat="45.8436" lon="4.888">
        <ele>278.919</ele>
        <time>2011-10-22T15:28:23Z</time>
      </trkpt>
      <trkpt lat="45.8436" lon="4.888">
        <ele>280.331</ele>
        <time>2011-10-22T15:28:34Z</time>
      </trkpt>
      <trkpt lat="45.8436" lon="4.888">
        <ele>280.584</ele>
        <time>2011-10-22T15:28:36Z</time>
      </trkpt>
      <trkpt lat="45.84327" lon="4.88826">
        <ele>282.645</ele>
        <time>2011-10-22T15:28:46Z</time>
      </trkpt>
      <trkpt lat="45.84311" lon="4.88848">
        <ele>281.667</ele>
        <time>2011-10-22T15:28:56Z</time>
      </trkpt>
      <trkpt lat="45.84309" lon="4.88856">
        <ele>279.998</ele>
        <time>2011-10-22T15:29:04Z</time>
      </trkpt>
      <trkpt lat="45.84309" lon="4.88856">
        <ele>282.263</ele>
        <time>2011-10-22T15:29:37Z</time>
      </trkpt>
      <trkpt lat="45.84298" lon="4.88883">
        <ele>281.567</ele>
        <time>2011-10-22T15:30:25Z</time>
      </trkpt>
      <trkpt lat="45.84287" lon="4.88908">
        <ele>282.522</ele>
        <time>2011-10-22T15:30:34Z</time>
      </trkpt>
      <trkpt lat="45.84273" lon="4.88932">
        <ele>281.274</ele>
        <time>2011-10-22T15:30:44Z</time>
      </trkpt>
      <trkpt lat="45.84253" lon="4.88945">
        <ele>282.697</ele>
        <time>2011-10-22T15:30:55Z</time>
      </trkpt>
      <trkpt lat="45.84225" lon="4.88958">
        <ele>283.019</ele>
        <time>2011-10-22T15:31:07Z</time>
      </trkpt>
      <trkpt lat="45.84206" lon="4.88966">
        <ele>283.251</ele>
        <time>2011-10-22T15:31:16Z</time>
      </trkpt>
      <trkpt lat="45.84182" lon="4.88974">
        <ele>283.92</ele>
        <time>2011-10-22T15:31:28Z</time>
      </trkpt>
      <trkpt lat="45.84159" lon="4.88982">
        <ele>284.813</ele>
        <time>2011-10-22T15:31:41Z</time>
      </trkpt>
      <trkpt lat="45.84138" lon="4.88981">
        <ele>286.737</ele>
        <time>2011-10-22T15:31:54Z</time>
      </trkpt>
      <trkpt lat="45.84132" lon="4.88978">
        <ele>287.699</ele>
        <time>2011-10-22T15:31:58Z</time>
      </trkpt>
      <trkpt lat="45.84112" lon="4.89005">
        <ele>287.975</ele>
        <time>2011-10-22T15:32:03Z</time>
      </trkpt>
      <trkpt lat="45.84118" lon="4.89019">
        <ele>287.298</ele>
        <time>2011-10-22T15:32:14Z</time>
      </trkpt>
      <trkpt lat="45.84118" lon="4.89019">
        <ele>288.213</ele>
        <time>2011-10-22T15:32:39Z</time>
      </trkpt>
      <trkpt lat="45.84108" lon="4.88998">
        <ele>287.909</ele>
        <time>2011-10-22T15:32:46Z</time>
      </trkpt>
      <trkpt lat="45.84115" lon="4.88959">
        <ele>288.991</ele>
        <time>2011-10-22T15:32:54Z</time>
      </trkpt>
      <trkpt lat="45.84096" lon="4.88936">
        <ele>289.119</ele>
        <time>2011-10-22T15:33:04Z</time>
      </trkpt>
      <trkpt lat="45.84076" lon="4.88906">
        <ele>291.73</ele>
        <time>2011-10-22T15:33:13Z</time>
      </trkpt>
      <trkpt lat="45.84067" lon="4.88899">
        <ele>292.621</ele>
        <time>2011-10-22T15:33:17Z</time>
      </trkpt>
      <trkpt lat="45.84059" lon="4.88896">
        <ele>290.635</ele>
        <time>2011-10-22T15:33:21Z</time>
      </trkpt>
      <trkpt lat="45.84062" lon="4.88911">
        <ele>289.866</ele>
        <time>2011-10-22T15:33:27Z</time>
      </trkpt>
      <trkpt lat="45.84076" lon="4.88938">
        <ele>291.71</ele>
        <time>2011-10-22T15:33:39Z</time>
      </trkpt>
      <trkpt lat="45.8409" lon="4.88964">
        <ele>293.493</ele>
        <time>2011-10-22T15:33:50Z</time>
      </trkpt>
      <trkpt lat="45.84102" lon="4.88988">
        <ele>296.478</ele>
        <time>2011-10-22T15:34:01Z</time>
      </trkpt>
      <trkpt lat="45.84114" lon="4.89009">
        <ele>297.504</ele>
        <time>2011-10-22T15:34:11Z</time>
      </trkpt>
      <trkpt lat="45.84126" lon="4.89036">
        <ele>298.644</ele>
        <time>2011-10-22T15:34:21Z</time>
      </trkpt>
      <trkpt lat="45.84155" lon="4.89085">
        <ele>296.385</ele>
        <time>2011-10-22T15:34:35Z</time>
      </trkpt>
      <trkpt lat="45.84173" lon="4.89109">
        <ele>294.873</ele>
        <time>2011-10-22T15:34:40Z</time>
      </trkpt>
      <trkpt lat="45.84194" lon="4.89128">
        <ele>294.523</ele>
        <time>2011-10-22T15:34:44Z</time>
      </trkpt>
      <trkpt lat="45.84225" lon="4.89141">
        <ele>291.496</ele>
        <time>2011-10-22T15:34:50Z</time>
      </trkpt>
      <trkpt lat="45.84228" lon="4.89142">
        <ele>290.237</ele>
        <time>2011-10-22T15:34:59Z</time>
      </trkpt>
      <trkpt lat="45.84228" lon="4.89142">
        <ele>289.53</ele>
        <time>2011-10-22T15:35:39Z</time>
      </trkpt>
      <trkpt lat="45.84211" lon="4.89164">
        <ele>289.125</ele>
        <time>2011-10-22T15:35:46Z</time>
      </trkpt>
      <trkpt lat="45.84173" lon="4.89137">
        <ele>290.559</ele>
        <time>2011-10-22T15:35:58Z</time>
      </trkpt>
      <trkpt lat="45.84155" lon="4.89119">
        <ele>290.238</ele>
        <time>2011-10-22T15:36:06Z</time>
      </trkpt>
      <trkpt lat="45.84128" lon="4.8909">
        <ele>290.019</ele>
        <time>2011-10-22T15:36:15Z</time>
      </trkpt>
      <trkpt lat="45.84093" lon="4.89075">
        <ele>289.65</ele>
        <time>2011-10-22T15:36:24Z</time>
      </trkpt>
      <trkpt lat="45.8405" lon="4.89086">
        <ele>289.031</ele>
        <time>2011-10-22T15:36:37Z</time>
      </trkpt>
      <trkpt lat="45.84015" lon="4.89095">
        <ele>286.785</ele>
        <time>2011-10-22T15:36:47Z</time>
      </trkpt>
      <trkpt lat="45.83988" lon="4.89102">
        <ele>287.71</ele>
        <time>2011-10-22T15:36:57Z</time>
      </trkpt>
      <trkpt lat="45.83959" lon="4.89109">
        <ele>286.543</ele>
        <time>2011-10-22T15:37:09Z</time>
      </trkpt>
      <trkpt lat="45.83925" lon="4.89118">
        <ele>284.788</ele>
        <time>2011-10-22T15:37:22Z</time>
      </trkpt>
      <trkpt lat="45.83895" lon="4.89126">
        <ele>285.2</ele>
        <time>2011-10-22T15:37:32Z</time>
      </trkpt>
      <trkpt lat="45.83861" lon="4.89135">
        <ele>287.179</ele>
        <time>2011-10-22T15:37:42Z</time>
      </trkpt>
      <trkpt lat="45.83852" lon="4.89137">
        <ele>288.076</ele>
        <time>2011-10-22T15:37:50Z</time>
      </trkpt>
      <trkpt lat="45.83837" lon="4.8914">
        <ele>287.387</ele>
        <time>2011-10-22T15:38:07Z</time>
      </trkpt>
      <trkpt lat="45.83827" lon="4.89142">
        <ele>288.422</ele>
        <time>2011-10-22T15:38:17Z</time>
      </trkpt>
      <trkpt lat="45.83811" lon="4.89146">
        <ele>288.893</ele>
        <time>2011-10-22T15:40:35Z</time>
      </trkpt>
      <trkpt lat="45.83776" lon="4.89154">
        <ele>288.829</ele>
        <time>2011-10-22T15:40:42Z</time>
      </trkpt>
      <trkpt lat="45.83706" lon="4.89168">
        <ele>286.763</ele>
        <time>2011-10-22T15:40:51Z</time>
      </trkpt>
      <trkpt lat="45.83634" lon="4.89179">
        <ele>280.418</ele>
        <time>2011-10-22T15:40:59Z</time>
      </trkpt>
      <trkpt lat="45.83609" lon="4.89213">
        <ele>278.671</ele>
        <time>2011-10-22T15:41:04Z</time>
      </trkpt>
      <trkpt lat="45.83608" lon="4.89235">
        <ele>277.683</ele>
        <time>2011-10-22T15:41:06Z</time>
      </trkpt>
      <trkpt lat="45.83611" lon="4.8929">
        <ele>275.155</ele>
        <time>2011-10-22T15:41:11Z</time>
      </trkpt>
      <trkpt lat="45.83609" lon="4.89315">
        <ele>275.571</ele>
        <time>2011-10-22T15:41:15Z</time>
      </trkpt>
      <trkpt lat="45.83609" lon="4.89315">
        <ele>275.028</ele>
        <time>2011-10-22T15:41:31Z</time>
      </trkpt>
      <trkpt lat="45.83609" lon="4.89315">
        <ele>275.719</ele>
        <time>2011-10-22T15:41:51Z</time>
      </trkpt>
      <trkpt lat="45.83612" lon="4.89305">
        <ele>276.231</ele>
        <time>2011-10-22T15:41:55Z</time>
      </trkpt>
      <trkpt lat="45.83609" lon="4.89264">
        <ele>277.673</ele>
        <time>2011-10-22T15:42:08Z</time>
      </trkpt>
      <trkpt lat="45.83608" lon="4.89223">
        <ele>281.384</ele>
        <time>2011-10-22T15:42:19Z</time>
      </trkpt>
      <trkpt lat="45.83614" lon="4.89194">
        <ele>283.541</ele>
        <time>2011-10-22T15:42:26Z</time>
      </trkpt>
      <trkpt lat="45.83586" lon="4.89196">
        <ele>284.169</ele>
        <time>2011-10-22T15:42:35Z</time>
      </trkpt>
      <trkpt lat="45.83586" lon="4.89195">
        <ele>284.188</ele>
        <time>2011-10-22T15:42:40Z</time>
      </trkpt>
      <trkpt lat="45.83587" lon="4.89188">
        <ele>283.813</ele>
        <time>2011-10-22T15:42:49Z</time>
      </trkpt>
      <trkpt lat="45.83562" lon="4.89191">
        <ele>283.375</ele>
        <time>2011-10-22T15:42:58Z</time>
      </trkpt>
      <trkpt lat="45.8354" lon="4.89196">
        <ele>283.585</ele>
        <time>2011-10-22T15:43:06Z</time>
      </trkpt>
      <trkpt lat="45.83502" lon="4.89201">
        <ele>283.26</ele>
        <time>2011-10-22T15:43:18Z</time>
      </trkpt>
      <trkpt lat="45.83501" lon="4.89204">
        <ele>282.929</ele>
        <time>2011-10-22T15:43:25Z</time>
      </trkpt>
      <trkpt lat="45.835" lon="4.89213">
        <ele>282.991</ele>
        <time>2011-10-22T15:43:32Z</time>
      </trkpt>
      <trkpt lat="45.83495" lon="4.89219">
        <ele>282.245</ele>
        <time>2011-10-22T15:43:44Z</time>
      </trkpt>
      <trkpt lat="45.83493" lon="4.89225">
        <ele>281.896</ele>
        <time>2011-10-22T15:43:58Z</time>
      </trkpt>
      <trkpt lat="45.8349" lon="4.89239">
        <ele>281.569</ele>
        <time>2011-10-22T15:44:04Z</time>
      </trkpt>
      <trkpt lat="45.83487" lon="4.8925">
        <ele>279.382</ele>
        <time>2011-10-22T15:44:13Z</time>
      </trkpt>
      <trkpt lat="45.83488" lon="4.89253">
        <ele>279.388</ele>
        <time>2011-10-22T15:46:58Z</time>
      </trkpt>
      <trkpt lat="45.83493" lon="4.89268">
        <ele>278.518</ele>
        <time>2011-10-22T15:47:08Z</time>
      </trkpt>
      <trkpt lat="45.83489" lon="4.89278">
        <ele>277.453</ele>
        <time>2011-10-22T15:47:29Z</time>
      </trkpt>
      <trkpt lat="45.83488" lon="4.89287">
        <ele>276.867</ele>
        <time>2011-10-22T15:47:46Z</time>
      </trkpt>
      <trkpt lat="45.83487" lon="4.89293">
        <ele>277.014</ele>
        <time>2011-10-22T15:48:19Z</time>
      </trkpt>
      <trkpt lat="45.83492" lon="4.8929">
        <ele>276.779</ele>
        <time>2011-10-22T15:49:31Z</time>
      </trkpt>
      <trkpt lat="45.83488" lon="4.89287">
        <ele>276.741</ele>
        <time>2011-10-22T15:49:33Z</time>
      </trkpt>
      <trkpt lat="45.83478" lon="4.89276">
        <ele>276.782</ele>
        <time>2011-10-22T15:49:38Z</time>
      </trkpt>
      <trkpt lat="45.83468" lon="4.89258">
        <ele>276.476</ele>
        <time>2011-10-22T15:49:48Z</time>
      </trkpt>
      <trkpt lat="45.8346" lon="4.8926">
        <ele>277.301</ele>
        <time>2011-10-22T15:50:16Z</time>
      </trkpt>
    </trkseg>
  </trk>
  <trk>
    <name><![CDATA[ACTIVE LOG175217]]></name>
    <trkseg>
      <trkpt lat="45.83391" lon="4.89093">
        <ele>272.011</ele>
        <time>2011-10-22T15:52:17Z</time>
      </trkpt>
      <trkpt lat="45.83395" lon="4.89092">
        <ele>280.423</ele>
        <time>2011-10-22T15:52:46Z</time>
      </trkpt>
      <trkpt lat="45.83401" lon="4.89094">
        <ele>276.808</ele>
        <time>2011-10-22T15:53:00Z</time>
      </trkpt>
      <trkpt lat="45.83403" lon="4.89081">
        <ele>276.955</ele>
        <time>2011-10-22T15:53:13Z</time>
      </trkpt>
      <trkpt lat="45.83399" lon="4.8907">
        <ele>278.129</ele>
        <time>2011-10-22T15:53:24Z</time>
      </trkpt>
      <trkpt lat="45.83393" lon="4.89059">
        <ele>277.829</ele>
        <time>2011-10-22T15:53:37Z</time>
      </trkpt>
      <trkpt lat="45.83389" lon="4.89057">
        <ele>278.416</ele>
        <time>2011-10-22T15:53:51Z</time>
      </trkpt>
      <trkpt lat="45.83376" lon="4.89048">
        <ele>279.556</ele>
        <time>2011-10-22T15:53:59Z</time>
      </trkpt>
      <trkpt lat="45.8337" lon="4.89044">
        <ele>279.325</ele>
        <time>2011-10-22T15:54:10Z</time>
      </trkpt>
      <trkpt lat="45.83368" lon="4.89043">
        <ele>281.331</ele>
        <time>2011-10-22T15:55:09Z</time>
      </trkpt>
      <trkpt lat="45.83351" lon="4.89029">
        <ele>280.475</ele>
        <time>2011-10-22T15:55:19Z</time>
      </trkpt>
      <trkpt lat="45.83337" lon="4.89025">
        <ele>280.276</ele>
        <time>2011-10-22T15:55:23Z</time>
      </trkpt>
      <trkpt lat="45.83326" lon="4.89">
        <ele>275.801</ele>
        <time>2011-10-22T15:55:30Z</time>
      </trkpt>
      <trkpt lat="45.83316" lon="4.88978">
        <ele>273.89</ele>
        <time>2011-10-22T15:55:39Z</time>
      </trkpt>
      <trkpt lat="45.83307" lon="4.88971">
        <ele>273.518</ele>
        <time>2011-10-22T15:55:51Z</time>
      </trkpt>
      <trkpt lat="45.83307" lon="4.88973">
        <ele>273.967</ele>
        <time>2011-10-22T15:55:55Z</time>
      </trkpt>
      <trkpt lat="45.83303" lon="4.88985">
        <ele>274.753</ele>
        <time>2011-10-22T15:56:03Z</time>
      </trkpt>
      <trkpt lat="45.83298" lon="4.88999">
        <ele>274.124</ele>
        <time>2011-10-22T15:56:08Z</time>
      </trkpt>
      <trkpt lat="45.83285" lon="4.89005">
        <ele>273.99</ele>
        <time>2011-10-22T15:56:14Z</time>
      </trkpt>
      <trkpt lat="45.83275" lon="4.8901">
        <ele>272.631</ele>
        <time>2011-10-22T15:56:20Z</time>
      </trkpt>
      <trkpt lat="45.83269" lon="4.88999">
        <ele>270.951</ele>
        <time>2011-10-22T15:56:26Z</time>
      </trkpt>
      <trkpt lat="45.8327" lon="4.88992">
        <ele>270.473</ele>
        <time>2011-10-22T15:56:28Z</time>
      </trkpt>
      <trkpt lat="45.83256" lon="4.8898">
        <ele>270.51</ele>
        <time>2011-10-22T15:56:33Z</time>
      </trkpt>
      <trkpt lat="45.83247" lon="4.88979">
        <ele>268.552</ele>
        <time>2011-10-22T15:56:35Z</time>
      </trkpt>
      <trkpt lat="45.83221" lon="4.88981">
        <ele>265.682</ele>
        <time>2011-10-22T15:56:43Z</time>
      </trkpt>
      <trkpt lat="45.83214" lon="4.88982">
        <ele>265.396</ele>
        <time>2011-10-22T15:56:47Z</time>
      </trkpt>
      <trkpt lat="45.83206" lon="4.88981">
        <ele>265.172</ele>
        <time>2011-10-22T15:56:51Z</time>
      </trkpt>
      <trkpt lat="45.8319" lon="4.88967">
        <ele>265.549</ele>
        <time>2011-10-22T15:56:56Z</time>
      </trkpt>
      <trkpt lat="45.83176" lon="4.8896">
        <ele>265.501</ele>
        <time>2011-10-22T15:57:04Z</time>
      </trkpt>
      <trkpt lat="45.83153" lon="4.8895">
        <ele>266.585</ele>
        <time>2011-10-22T15:57:12Z</time>
      </trkpt>
      <trkpt lat="45.8314" lon="4.88953">
        <ele>265.794</ele>
        <time>2011-10-22T15:57:20Z</time>
      </trkpt>
      <trkpt lat="45.8314" lon="4.88952">
        <ele>264.951</ele>
        <time>2011-10-22T15:57:26Z</time>
      </trkpt>
      <trkpt lat="45.83118" lon="4.88957">
        <ele>265.91</ele>
        <time>2011-10-22T15:57:34Z</time>
      </trkpt>
      <trkpt lat="45.83097" lon="4.88931">
        <ele>265.328</ele>
        <time>2011-10-22T15:57:41Z</time>
      </trkpt>
      <trkpt lat="45.83094" lon="4.88922">
        <ele>265.303</ele>
        <time>2011-10-22T15:57:42Z</time>
      </trkpt>
      <trkpt lat="45.83072" lon="4.88885">
        <ele>264.073</ele>
        <time>2011-10-22T15:57:50Z</time>
      </trkpt>
      <trkpt lat="45.83064" lon="4.88878">
        <ele>264.53</ele>
        <time>2011-10-22T15:58:01Z</time>
      </trkpt>
      <trkpt lat="45.83064" lon="4.8886">
        <ele>264.678</ele>
        <time>2011-10-22T15:58:07Z</time>
      </trkpt>
      <trkpt lat="45.83054" lon="4.88837">
        <ele>263.46</ele>
        <time>2011-10-22T15:58:14Z</time>
      </trkpt>
      <trkpt lat="45.83049" lon="4.88835">
        <ele>263.281</ele>
        <time>2011-10-22T15:58:16Z</time>
      </trkpt>
      <trkpt lat="45.83032" lon="4.8883">
        <ele>266.336</ele>
        <time>2011-10-22T15:58:27Z</time>
      </trkpt>
      <trkpt lat="45.83028" lon="4.88827">
        <ele>269.85</ele>
        <time>2011-10-22T15:58:42Z</time>
      </trkpt>
      <trkpt lat="45.83022" lon="4.88831">
        <ele>270.429</ele>
        <time>2011-10-22T15:58:54Z</time>
      </trkpt>
      <trkpt lat="45.83011" lon="4.88842">
        <ele>270.767</ele>
        <time>2011-10-22T15:59:16Z</time>
      </trkpt>
      <trkpt lat="45.83004" lon="4.88847">
        <ele>271.053</ele>
        <time>2011-10-22T15:59:30Z</time>
      </trkpt>
      <trkpt lat="45.83001" lon="4.88848">
        <ele>271.944</ele>
        <time>2011-10-22T15:59:53Z</time>
      </trkpt>
      <trkpt lat="45.83012" lon="4.8885">
        <ele>274.669</ele>
        <time>2011-10-22T16:00:54Z</time>
      </trkpt>
      <trkpt lat="45.83011" lon="4.88853">
        <ele>273.759</ele>
        <time>2011-10-22T16:01:22Z</time>
      </trkpt>
      <trkpt lat="45.82991" lon="4.88835">
        <ele>274.05</ele>
        <time>2011-10-22T16:01:44Z</time>
      </trkpt>
      <trkpt lat="45.82985" lon="4.88831">
        <ele>274.251</ele>
        <time>2011-10-22T16:01:47Z</time>
      </trkpt>
      <trkpt lat="45.82975" lon="4.88821">
        <ele>274.756</ele>
        <time>2011-10-22T16:01:55Z</time>
      </trkpt>
      <trkpt lat="45.82964" lon="4.88815">
        <ele>275.29</ele>
        <time>2011-10-22T16:01:59Z</time>
      </trkpt>
      <trkpt lat="45.82948" lon="4.88816">
        <ele>275.228</ele>
        <time>2011-10-22T16:02:07Z</time>
      </trkpt>
      <trkpt lat="45.82933" lon="4.88815">
        <ele>274.045</ele>
        <time>2011-10-22T16:02:15Z</time>
      </trkpt>
      <trkpt lat="45.82927" lon="4.8881">
        <ele>273.439</ele>
        <time>2011-10-22T16:02:18Z</time>
      </trkpt>
      <trkpt lat="45.82919" lon="4.88806">
        <ele>273.059</ele>
        <time>2011-10-22T16:02:21Z</time>
      </trkpt>
      <trkpt lat="45.82915" lon="4.88801">
        <ele>272.363</ele>
        <time>2011-10-22T16:02:23Z</time>
      </trkpt>
      <trkpt lat="45.8289" lon="4.8879">
        <ele>271.182</ele>
        <time>2011-10-22T16:02:33Z</time>
      </trkpt>
      <trkpt lat="45.82877" lon="4.88787">
        <ele>271.922</ele>
        <time>2011-10-22T16:02:49Z</time>
      </trkpt>
      <trkpt lat="45.82872" lon="4.88787">
        <ele>272.294</ele>
        <time>2011-10-22T16:02:52Z</time>
      </trkpt>
      <trkpt lat="45.82863" lon="4.88774">
        <ele>271.977</ele>
        <time>2011-10-22T16:03:01Z</time>
      </trkpt>
      <trkpt lat="45.82856" lon="4.88756">
        <ele>271.304</ele>
        <time>2011-10-22T16:03:10Z</time>
      </trkpt>
      <trkpt lat="45.82841" lon="4.88723">
        <ele>271.185</ele>
        <time>2011-10-22T16:03:20Z</time>
      </trkpt>
      <trkpt lat="45.82825" lon="4.88704">
        <ele>267.422</ele>
        <time>2011-10-22T16:03:26Z</time>
      </trkpt>
      <trkpt lat="45.82805" lon="4.88699">
        <ele>265.487</ele>
        <time>2011-10-22T16:03:35Z</time>
      </trkpt>
      <trkpt lat="45.82788" lon="4.88688">
        <ele>263.681</ele>
        <time>2011-10-22T16:03:45Z</time>
      </trkpt>
      <trkpt lat="45.82776" lon="4.88697">
        <ele>261.876</ele>
        <time>2011-10-22T16:04:00Z</time>
      </trkpt>
      <trkpt lat="45.8277" lon="4.88691">
        <ele>260.852</ele>
        <time>2011-10-22T16:04:11Z</time>
      </trkpt>
      <trkpt lat="45.82766" lon="4.88686">
        <ele>261.757</ele>
        <time>2011-10-22T16:04:30Z</time>
      </trkpt>
      <trkpt lat="45.82761" lon="4.88682">
        <ele>261.409</ele>
        <time>2011-10-22T16:04:49Z</time>
      </trkpt>
      <trkpt lat="45.82752" lon="4.88686">
        <ele>262.655</ele>
        <time>2011-10-22T16:05:06Z</time>
      </trkpt>
      <trkpt lat="45.8275" lon="4.88687">
        <ele>263.032</ele>
        <time>2011-10-22T16:05:29Z</time>
      </trkpt>
      <trkpt lat="45.82733" lon="4.88688">
        <ele>263.333</ele>
        <time>2011-10-22T16:05:39Z</time>
      </trkpt>
      <trkpt lat="45.82726" lon="4.88687">
        <ele>264.109</ele>
        <time>2011-10-22T16:06:04Z</time>
      </trkpt>
      <trkpt lat="45.82721" lon="4.88688">
        <ele>264.67</ele>
        <time>2011-10-22T16:06:08Z</time>
      </trkpt>
      <trkpt lat="45.8271" lon="4.88688">
        <ele>264.392</ele>
        <time>2011-10-22T16:06:13Z</time>
      </trkpt>
      <trkpt lat="45.82681" lon="4.88683">
        <ele>264.321</ele>
        <time>2011-10-22T16:06:21Z</time>
      </trkpt>
      <trkpt lat="45.82668" lon="4.88683">
        <ele>264.923</ele>
        <time>2011-10-22T16:06:24Z</time>
      </trkpt>
      <trkpt lat="45.82629" lon="4.88696">
        <ele>267.441</ele>
        <time>2011-10-22T16:06:30Z</time>
      </trkpt>
      <trkpt lat="45.82617" lon="4.88685">
        <ele>269.365</ele>
        <time>2011-10-22T16:06:34Z</time>
      </trkpt>
      <trkpt lat="45.82604" lon="4.88678">
        <ele>270.38</ele>
        <time>2011-10-22T16:06:41Z</time>
      </trkpt>
      <trkpt lat="45.82604" lon="4.88678">
        <ele>271.934</ele>
        <time>2011-10-22T16:06:56Z</time>
      </trkpt>
      <trkpt lat="45.82585" lon="4.88663">
        <ele>271.732</ele>
        <time>2011-10-22T16:07:56Z</time>
      </trkpt>
      <trkpt lat="45.82561" lon="4.88624">
        <ele>269.336</ele>
        <time>2011-10-22T16:08:06Z</time>
      </trkpt>
      <trkpt lat="45.82542" lon="4.8859">
        <ele>265.826</ele>
        <time>2011-10-22T16:08:16Z</time>
      </trkpt>
      <trkpt lat="45.82536" lon="4.88568">
        <ele>266.372</ele>
        <time>2011-10-22T16:08:24Z</time>
      </trkpt>
      <trkpt lat="45.82531" lon="4.88536">
        <ele>269.679</ele>
        <time>2011-10-22T16:08:35Z</time>
      </trkpt>
      <trkpt lat="45.82526" lon="4.88522">
        <ele>269.942</ele>
        <time>2011-10-22T16:08:46Z</time>
      </trkpt>
      <trkpt lat="45.82526" lon="4.88522">
        <ele>269.251</ele>
        <time>2011-10-22T16:08:48Z</time>
      </trkpt>
      <trkpt lat="45.82522" lon="4.88505">
        <ele>268.533</ele>
        <time>2011-10-22T16:09:01Z</time>
      </trkpt>
      <trkpt lat="45.82522" lon="4.88505">
        <ele>268.527</ele>
        <time>2011-10-22T16:09:27Z</time>
      </trkpt>
      <trkpt lat="45.82527" lon="4.88503">
        <ele>268.592</ele>
        <time>2011-10-22T16:09:38Z</time>
      </trkpt>
      <trkpt lat="45.82545" lon="4.88497">
        <ele>267.183</ele>
        <time>2011-10-22T16:09:52Z</time>
      </trkpt>
      <trkpt lat="45.82564" lon="4.88491">
        <ele>266.404</ele>
        <time>2011-10-22T16:09:56Z</time>
      </trkpt>
      <trkpt lat="45.82618" lon="4.88448">
        <ele>264.915</ele>
        <time>2011-10-22T16:10:05Z</time>
      </trkpt>
      <trkpt lat="45.82631" lon="4.88382">
        <ele>260.577</ele>
        <time>2011-10-22T16:10:11Z</time>
      </trkpt>
      <trkpt lat="45.82642" lon="4.88342">
        <ele>258.411</ele>
        <time>2011-10-22T16:10:14Z</time>
      </trkpt>
      <trkpt lat="45.82667" lon="4.88298">
        <ele>255.39</ele>
        <time>2011-10-22T16:10:18Z</time>
      </trkpt>
      <trkpt lat="45.82666" lon="4.88238">
        <ele>252.624</ele>
        <time>2011-10-22T16:10:23Z</time>
      </trkpt>
      <trkpt lat="45.82647" lon="4.88227">
        <ele>250.909</ele>
        <time>2011-10-22T16:10:25Z</time>
      </trkpt>
      <trkpt lat="45.8262" lon="4.88214">
        <ele>249.888</ele>
        <time>2011-10-22T16:10:28Z</time>
      </trkpt>
      <trkpt lat="45.82586" lon="4.88202">
        <ele>246.911</ele>
        <time>2011-10-22T16:10:32Z</time>
      </trkpt>
      <trkpt lat="45.82552" lon="4.88179">
        <ele>243.245</ele>
        <time>2011-10-22T16:10:37Z</time>
      </trkpt>
      <trkpt lat="45.82555" lon="4.88156">
        <ele>242.726</ele>
        <time>2011-10-22T16:10:39Z</time>
      </trkpt>
      <trkpt lat="45.82553" lon="4.88098">
        <ele>238.849</ele>
        <time>2011-10-22T16:10:47Z</time>
      </trkpt>
      <trkpt lat="45.82547" lon="4.88073">
        <ele>238.313</ele>
        <time>2011-10-22T16:10:51Z</time>
      </trkpt>
      <trkpt lat="45.82546" lon="4.88055">
        <ele>237.417</ele>
        <time>2011-10-22T16:10:53Z</time>
      </trkpt>
      <trkpt lat="45.82563" lon="4.87999">
        <ele>236.341</ele>
        <time>2011-10-22T16:10:58Z</time>
      </trkpt>
      <trkpt lat="45.82584" lon="4.87966">
        <ele>234.978</ele>
        <time>2011-10-22T16:11:01Z</time>
      </trkpt>
      <trkpt lat="45.82638" lon="4.87892">
        <ele>231.935</ele>
        <time>2011-10-22T16:11:09Z</time>
      </trkpt>
      <trkpt lat="45.82672" lon="4.87859">
        <ele>229.973</ele>
        <time>2011-10-22T16:11:12Z</time>
      </trkpt>
      <trkpt lat="45.827" lon="4.87827">
        <ele>226.724</ele>
        <time>2011-10-22T16:11:18Z</time>
      </trkpt>
      <trkpt lat="45.8273" lon="4.87841">
        <ele>225.46</ele>
        <time>2011-10-22T16:11:23Z</time>
      </trkpt>
      <trkpt lat="45.82758" lon="4.87855">
        <ele>224.868</ele>
        <time>2011-10-22T16:11:29Z</time>
      </trkpt>
      <trkpt lat="45.82782" lon="4.87852">
        <ele>225.69</ele>
        <time>2011-10-22T16:11:33Z</time>
      </trkpt>
      <trkpt lat="45.82799" lon="4.87849">
        <ele>225.683</ele>
        <time>2011-10-22T16:11:36Z</time>
      </trkpt>
      <trkpt lat="45.82859" lon="4.87835">
        <ele>227.987</ele>
        <time>2011-10-22T16:11:45Z</time>
      </trkpt>
      <trkpt lat="45.82903" lon="4.87823">
        <ele>229.773</ele>
        <time>2011-10-22T16:11:50Z</time>
      </trkpt>
      <trkpt lat="45.82948" lon="4.87774">
        <ele>228.082</ele>
        <time>2011-10-22T16:11:56Z</time>
      </trkpt>
      <trkpt lat="45.82953" lon="4.87763">
        <ele>227.605</ele>
        <time>2011-10-22T16:11:57Z</time>
      </trkpt>
      <trkpt lat="45.82988" lon="4.8766">
        <ele>223.286</ele>
        <time>2011-10-22T16:12:05Z</time>
      </trkpt>
      <trkpt lat="45.82988" lon="4.87622">
        <ele>221.808</ele>
        <time>2011-10-22T16:12:08Z</time>
      </trkpt>
      <trkpt lat="45.8297" lon="4.87518">
        <ele>219.808</ele>
        <time>2011-10-22T16:12:17Z</time>
      </trkpt>
      <trkpt lat="45.82969" lon="4.87507">
        <ele>219.484</ele>
        <time>2011-10-22T16:12:18Z</time>
      </trkpt>
      <trkpt lat="45.82965" lon="4.87474">
        <ele>218.537</ele>
        <time>2011-10-22T16:12:21Z</time>
      </trkpt>
      <trkpt lat="45.82966" lon="4.87422">
        <ele>216.29</ele>
        <time>2011-10-22T16:12:27Z</time>
      </trkpt>
      <trkpt lat="45.82971" lon="4.87378">
        <ele>211.958</ele>
        <time>2011-10-22T16:12:31Z</time>
      </trkpt>
      <trkpt lat="45.83016" lon="4.87269">
        <ele>205.814</ele>
        <time>2011-10-22T16:12:41Z</time>
      </trkpt>
      <trkpt lat="45.83051" lon="4.87139">
        <ele>208.765</ele>
        <time>2011-10-22T16:12:52Z</time>
      </trkpt>
      <trkpt lat="45.83083" lon="4.87054">
        <ele>208.368</ele>
        <time>2011-10-22T16:13:00Z</time>
      </trkpt>
      <trkpt lat="45.83117" lon="4.86951">
        <ele>207.108</ele>
        <time>2011-10-22T16:13:11Z</time>
      </trkpt>
      <trkpt lat="45.83127" lon="4.86917">
        <ele>206.663</ele>
        <time>2011-10-22T16:13:15Z</time>
      </trkpt>
      <trkpt lat="45.83135" lon="4.86889">
        <ele>206.833</ele>
        <time>2011-10-22T16:13:19Z</time>
      </trkpt>
      <trkpt lat="45.8314" lon="4.86875">
        <ele>208.114</ele>
        <time>2011-10-22T16:13:22Z</time>
      </trkpt>
      <trkpt lat="45.83152" lon="4.86812">
        <ele>207.371</ele>
        <time>2011-10-22T16:13:30Z</time>
      </trkpt>
      <trkpt lat="45.83154" lon="4.86783">
        <ele>207.403</ele>
        <time>2011-10-22T16:13:33Z</time>
      </trkpt>
      <trkpt lat="45.83153" lon="4.86777">
        <ele>208.218</ele>
        <time>2011-10-22T16:13:37Z</time>
      </trkpt>
      <trkpt lat="45.83156" lon="4.86776">
        <ele>206.195</ele>
        <time>2011-10-22T16:13:40Z</time>
      </trkpt>
      <trkpt lat="45.83161" lon="4.86749">
        <ele>205.224</ele>
        <time>2011-10-22T16:13:45Z</time>
      </trkpt>
      <trkpt lat="45.83172" lon="4.867">
        <ele>204.086</ele>
        <time>2011-10-22T16:13:50Z</time>
      </trkpt>
      <trkpt lat="45.83176" lon="4.86636">
        <ele>202.554</ele>
        <time>2011-10-22T16:13:55Z</time>
      </trkpt>
      <trkpt lat="45.83179" lon="4.8658">
        <ele>202.056</ele>
        <time>2011-10-22T16:13:58Z</time>
      </trkpt>
      <trkpt lat="45.83179" lon="4.86553">
        <ele>203.937</ele>
        <time>2011-10-22T16:14:02Z</time>
      </trkpt>
      <trkpt lat="45.83179" lon="4.86553">
        <ele>202.552</ele>
        <time>2011-10-22T16:14:05Z</time>
      </trkpt>
      <trkpt lat="45.83185" lon="4.86527">
        <ele>199.798</ele>
        <time>2011-10-22T16:14:09Z</time>
      </trkpt>
      <trkpt lat="45.83189" lon="4.86522">
        <ele>198.626</ele>
        <time>2011-10-22T16:14:10Z</time>
      </trkpt>
      <trkpt lat="45.83215" lon="4.86473">
        <ele>196.648</ele>
        <time>2011-10-22T16:14:16Z</time>
      </trkpt>
      <trkpt lat="45.83227" lon="4.86411">
        <ele>192.542</ele>
        <time>2011-10-22T16:14:22Z</time>
      </trkpt>
      <trkpt lat="45.83232" lon="4.86344">
        <ele>191.198</ele>
        <time>2011-10-22T16:14:28Z</time>
      </trkpt>
      <trkpt lat="45.83234" lon="4.86311">
        <ele>190.541</ele>
        <time>2011-10-22T16:14:31Z</time>
      </trkpt>
      <trkpt lat="45.83235" lon="4.86287">
        <ele>189.95</ele>
        <time>2011-10-22T16:14:33Z</time>
      </trkpt>
      <trkpt lat="45.83236" lon="4.86254">
        <ele>188.973</ele>
        <time>2011-10-22T16:14:36Z</time>
      </trkpt>
      <trkpt lat="45.83235" lon="4.86102">
        <ele>186.476</ele>
        <time>2011-10-22T16:14:49Z</time>
      </trkpt>
      <trkpt lat="45.8323" lon="4.86044">
        <ele>188.461</ele>
        <time>2011-10-22T16:14:54Z</time>
      </trkpt>
      <trkpt lat="45.83223" lon="4.85952">
        <ele>188.301</ele>
        <time>2011-10-22T16:15:02Z</time>
      </trkpt>
      <trkpt lat="45.8321" lon="4.85849">
        <ele>187.409</ele>
        <time>2011-10-22T16:15:11Z</time>
      </trkpt>
      <trkpt lat="45.83206" lon="4.85815">
        <ele>187.629</ele>
        <time>2011-10-22T16:15:14Z</time>
      </trkpt>
      <trkpt lat="45.83195" lon="4.85776">
        <ele>187.847</ele>
        <time>2011-10-22T16:15:18Z</time>
      </trkpt>
      <trkpt lat="45.83174" lon="4.85697">
        <ele>187.218</ele>
        <time>2011-10-22T16:15:27Z</time>
      </trkpt>
      <trkpt lat="45.8316" lon="4.85644">
        <ele>187.961</ele>
        <time>2011-10-22T16:15:37Z</time>
      </trkpt>
      <trkpt lat="45.83168" lon="4.85602">
        <ele>185.395</ele>
        <time>2011-10-22T16:15:45Z</time>
      </trkpt>
      <trkpt lat="45.83169" lon="4.856">
        <ele>184.402</ele>
        <time>2011-10-22T16:15:49Z</time>
      </trkpt>
      <trkpt lat="45.8317" lon="4.85584">
        <ele>184.395</ele>
        <time>2011-10-22T16:15:53Z</time>
      </trkpt>
      <trkpt lat="45.8318" lon="4.85532">
        <ele>180.566</ele>
        <time>2011-10-22T16:16:00Z</time>
      </trkpt>
      <trkpt lat="45.83206" lon="4.85435">
        <ele>175.287</ele>
        <time>2011-10-22T16:16:09Z</time>
      </trkpt>
      <trkpt lat="45.83243" lon="4.85298">
        <ele>171.059</ele>
        <time>2011-10-22T16:16:20Z</time>
      </trkpt>
      <trkpt lat="45.83272" lon="4.85198">
        <ele>170.467</ele>
        <time>2011-10-22T16:16:29Z</time>
      </trkpt>
      <trkpt lat="45.833" lon="4.85109">
        <ele>167.594</ele>
        <time>2011-10-22T16:16:38Z</time>
      </trkpt>
      <trkpt lat="45.83328" lon="4.85036">
        <ele>166.951</ele>
        <time>2011-10-22T16:16:46Z</time>
      </trkpt>
      <trkpt lat="45.8334" lon="4.8501">
        <ele>164.907</ele>
        <time>2011-10-22T16:16:52Z</time>
      </trkpt>
      <trkpt lat="45.83336" lon="4.85003">
        <ele>163.947</ele>
        <time>2011-10-22T16:16:55Z</time>
      </trkpt>
      <trkpt lat="45.83286" lon="4.84958">
        <ele>162.988</ele>
        <time>2011-10-22T16:17:06Z</time>
      </trkpt>
      <trkpt lat="45.83272" lon="4.84932">
        <ele>163.257</ele>
        <time>2011-10-22T16:17:12Z</time>
      </trkpt>
      <trkpt lat="45.83262" lon="4.84937">
        <ele>167.797</ele>
        <time>2011-10-22T16:17:18Z</time>
      </trkpt>
      <trkpt lat="45.83261" lon="4.84936">
        <ele>168.302</ele>
        <time>2011-10-22T16:17:26Z</time>
      </trkpt>
    </trkseg>
  </trk>
</gpx>